PORTS® Data Listing: 9414750 Alameda, CA

CO-OPS RAW PORTS DATA

************************      PRELIMINARY DATA      ************************** 

     THIS RAW DATA HAS NOT BEEN SUBJECT TO THE NATIONAL OCEAN SERVICE'S        
     QUALITY CONTROL OR QUALITY ASSURANCE PROCEDURES AND DOES NOT MEET         
     THE CRITERIA AND STANDARDS OF OFFICIAL NATIONAL OCEAN SERVICE             
     DATA.  IT IS RELEASED FOR LIMITED PUBLIC USE AS PRELIMINARY DATA TO       
     BE USED ONLY WITH APPROPRIATE CAUTION.                                    

************************      PRELIMINARY DATA      ************************** 


       CD   -   Calendar date
       T    -   Time
       TZ   -   Timezone
       PW   -   Predicted water level (feet above MLLW)
       OW   -   Observed water level (feet above MLLW)
       WS   -   Wind speed (knots)
       WD   -   Wind direction (degrees true)
       WG   -   Wind gust (knots)
       AT   -   Air temperature (degrees farenheit)
       WT   -   Water temperature (degrees farenheit)
       AP   -   Air pressure (millibars)
       SA   -   Salinty (PSU - Practical Salinity Units)
       SG   -   Specific gravity
       RH   -   Relative humidity
       AG   -   Air gap (feet)
       VI   -   Visibility (nautical miles)

       ** NOTE **
       A variable that has its data fields filled with "9"s, indicates that
       data was not collected for that sample period.
       **********


STATION NAME: Alameda (9414750)
****************************************************************************************************
    CD       T    TZ    PW     OW    WS   WD   WG    AT    WT    AP    SA    SG     RH    AG   VI
****************************************************************************************************
2019/10/19 04:48 PDT    4.89   4.84    2   93    4  53.6  61.3 1018.8 -9.9 -9.999 -99.9 -99.99 -9.99
2019/10/19 04:54 PDT    4.91   4.87    2   85    3  53.4  61.3 1018.9 -9.9 -9.999 -99.9 -99.99 -9.99
2019/10/19 05:00 PDT    4.92   4.86    3   80    4  53.1  61.3 1019.0 -9.9 -9.999 -99.9 -99.99 -9.99
2019/10/19 05:06 PDT    4.93   4.85    4   81    6  52.7  61.3 1018.9 -9.9 -9.999 -99.9 -99.99 -9.99
2019/10/19 05:12 PDT    4.93   4.87    3   92    5  52.9  61.3 1018.8 -9.9 -9.999 -99.9 -99.99 -9.99
2019/10/19 05:18 PDT    4.93   4.89    2   89    3  52.9  61.3 1019.1 -9.9 -9.999 -99.9 -99.99 -9.99
2019/10/19 05:24 PDT    4.93   4.89    2   97    3  53.1  61.3 1019.1 -9.9 -9.999 -99.9 -99.99 -9.99
2019/10/19 05:30 PDT    4.92   4.86    3  106    4  53.4  61.3 1018.7 -9.9 -9.999 -99.9 -99.99 -9.99
2019/10/19 05:36 PDT    4.91   4.84    3  100    5  53.2  61.3 1018.5 -9.9 -9.999 -99.9 -99.99 -9.99
2019/10/19 05:42 PDT    4.89   4.81    4   96    6  53.6  61.3 1018.6 -9.9 -9.999 -99.9 -99.99 -9.99
2019/10/19 05:48 PDT    4.87   4.78    3   87    5  53.2  61.3 1018.8 -9.9 -9.999 -99.9 -99.99 -9.99
2019/10/19 05:54 PDT    4.84   4.78    2   65    4  53.2  61.3 1019.0 -9.9 -9.999 -99.9 -99.99 -9.99
2019/10/19 06:00 PDT    4.82   4.75    2   75    3  53.1  61.3 1019.1 -9.9 -9.999 -99.9 -99.99 -9.99
2019/10/19 06:06 PDT    4.78   4.71    1   56    4  52.9  61.3 1019.2 -9.9 -9.999 -99.9 -99.99 -9.99
2019/10/19 06:12 PDT    4.75   4.64    3   92    4  52.9  61.3 1018.9 -9.9 -9.999 -99.9 -99.99 -9.99
2019/10/19 06:18 PDT    4.71   4.61    4  101    5  52.9  61.3 1018.8 -9.9 -9.999 -99.9 -99.99 -9.99
2019/10/19 06:24 PDT    4.67   4.56    3   86    4  52.9  61.3 1018.8 -9.9 -9.999 -99.9 -99.99 -9.99
2019/10/19 06:30 PDT    4.62   4.50    4   91    5  52.7  61.3 1018.9 -9.9 -9.999 -99.9 -99.99 -9.99
2019/10/19 06:36 PDT    4.57   4.43    4   93    5  52.9  61.3 1018.9 -9.9 -9.999 -99.9 -99.99 -9.99
2019/10/19 06:42 PDT    4.52   4.41    3   89    4  52.7  61.3 1018.8 -9.9 -9.999 -99.9 -99.99 -9.99
2019/10/19 06:48 PDT    4.47   4.40    3   91    5  52.7  61.3 1018.9 -9.9 -9.999 -99.9 -99.99 -9.99
2019/10/19 06:54 PDT    4.41   4.30    4   91    5  52.7  61.3 1018.9 -9.9 -9.999 -99.9 -99.99 -9.99
2019/10/19 07:00 PDT    4.36   4.21    4   91    5  52.9  61.3 1019.2 -9.9 -9.999 -99.9 -99.99 -9.99
2019/10/19 07:06 PDT    4.30   4.14    4   91    5  52.9  61.3 1019.3 -9.9 -9.999 -99.9 -99.99 -9.99
2019/10/19 07:12 PDT    4.24   4.10    3   96    4  52.9  61.3 1019.4 -9.9 -9.999 -99.9 -99.99 -9.99
2019/10/19 07:18 PDT    4.18   4.04    4   97    6  53.1  61.2 1019.5 -9.9 -9.999 -99.9 -99.99 -9.99
2019/10/19 07:24 PDT    4.12   4.02    3   89    5  53.1  61.2 1019.6 -9.9 -9.999 -99.9 -99.99 -9.99
2019/10/19 07:30 PDT    4.07   3.96    3   98    5  53.4  61.2 1019.4 -9.9 -9.999 -99.9 -99.99 -9.99
2019/10/19 07:36 PDT    4.01   3.91    5   94    6  53.1  61.2 1019.6 -9.9 -9.999 -99.9 -99.99 -9.99
2019/10/19 07:42 PDT    3.95   3.82    5  101    7  53.4  61.2 1019.5 -9.9 -9.999 -99.9 -99.99 -9.99
2019/10/19 07:48 PDT    3.89   3.75    4   96    6  53.2  61.2 1019.6 -9.9 -9.999 -99.9 -99.99 -9.99
2019/10/19 07:54 PDT    3.83   3.70    5  105    7  54.0  61.2 1019.7 -9.9 -9.999 -99.9 -99.99 -9.99
2019/10/19 08:00 PDT    3.78   3.65    4   94    7  53.6  61.2 1019.7 -9.9 -9.999 -99.9 -99.99 -9.99
2019/10/19 08:06 PDT    3.73   3.59    4   90    6  53.6  61.2 1019.9 -9.9 -9.999 -99.9 -99.99 -9.99
2019/10/19 08:12 PDT    3.67   3.57    3   98    6  53.8  61.2 1020.1 -9.9 -9.999 -99.9 -99.99 -9.99
2019/10/19 08:18 PDT    3.63   3.49    5  103    7  54.3  61.2 1020.1 -9.9 -9.999 -99.9 -99.99 -9.99
2019/10/19 08:24 PDT    3.58   3.40    6  107    7  54.7  61.2 1020.0 -9.9 -9.999 -99.9 -99.99 -9.99
2019/10/19 08:30 PDT    3.53   3.36    7  107    9  55.0  61.2 1019.9 -9.9 -9.999 -99.9 -99.99 -9.99
2019/10/19 08:36 PDT    3.49   3.31    6  107    9  55.2  61.2 1019.8 -9.9 -9.999 -99.9 -99.99 -9.99
2019/10/19 08:42 PDT    3.45   3.26    7  106    9  55.4  61.2 1019.9 -9.9 -9.999 -99.9 -99.99 -9.99
2019/10/19 08:48 PDT    3.42   3.23    8  106   10  55.4  61.2 1019.8 -9.9 -9.999 -99.9 -99.99 -9.99
2019/10/19 08:54 PDT    3.38   3.21    8  106    9  55.2  61.2 1019.7 -9.9 -9.999 -99.9 -99.99 -9.99
2019/10/19 09:00 PDT    3.35   3.14    7  107    9  55.2  61.2 1019.8 -9.9 -9.999 -99.9 -99.99 -9.99
2019/10/19 09:06 PDT    3.33   3.07    7  110    9  55.4  61.2 1019.8 -9.9 -9.999 -99.9 -99.99 -9.99
2019/10/19 09:12 PDT    3.30   3.08    7  109    9  55.9  61.2 1019.9 -9.9 -9.999 -99.9 -99.99 -9.99
2019/10/19 09:18 PDT    3.28   3.08    6  106    8  56.1  61.2 1019.8 -9.9 -9.999 -99.9 -99.99 -9.99
2019/10/19 09:24 PDT    3.26   3.03    6  108    8  56.5  61.2 1020.0 -9.9 -9.999 -99.9 -99.99 -9.99
2019/10/19 09:30 PDT    3.25   3.02    5  107    7  56.7  61.2 1020.3 -9.9 -9.999 -99.9 -99.99 -9.99
2019/10/19 09:36 PDT    3.24   3.02    6  113    8  56.8  61.2 1020.3 -9.9 -9.999 -99.9 -99.99 -9.99
2019/10/19 09:42 PDT    3.23   3.02    7  117    9  57.4  61.2 1020.2 -9.9 -9.999 -99.9 -99.99 -9.99
2019/10/19 09:48 PDT    3.23   3.04    7  115   10  57.6  61.2 1020.2 -9.9 -9.999 -99.9 -99.99 -9.99
2019/10/19 09:54 PDT    3.23   3.08    6  116   10  58.1  61.2 1020.2 -9.9 -9.999 -99.9 -99.99 -9.99
2019/10/19 10:00 PDT    3.23   3.09    6  119    9  58.5  61.2 1020.0 -9.9 -9.999 -99.9 -99.99 -9.99
2019/10/19 10:06 PDT    3.23   3.04    6  113    9  58.3  61.0 1020.1 -9.9 -9.999 -99.9 -99.99 -9.99
2019/10/19 10:12 PDT    3.24   3.00    6  112    9  58.3  61.2 1020.4 -9.9 -9.999 -99.9 -99.99 -9.99
2019/10/19 10:18 PDT    3.25   3.03    6  111    8  58.1  61.2 1020.4 -9.9 -9.999 -99.9 -99.99 -9.99
2019/10/19 10:24 PDT    3.27   3.09    7  112    9  58.3  61.2 1020.3 -9.9 -9.999 -99.9 -99.99 -9.99
2019/10/19 10:30 PDT    3.29   3.11    7  111   10  58.3  61.0 1020.3 -9.9 -9.999 -99.9 -99.99 -9.99
2019/10/19 10:36 PDT    3.31   3.11    7  113    9  58.5  61.0 1020.4 -9.9 -9.999 -99.9 -99.99 -9.99
2019/10/19 10:42 PDT    3.33   3.15    6  114    9  59.0  61.2 1020.4 -9.9 -9.999 -99.9 -99.99 -9.99
2019/10/19 10:48 PDT    3.36   3.15    5  116    8  59.2  61.2 1020.5 -9.9 -9.999 -99.9 -99.99 -9.99
2019/10/19 10:54 PDT    3.39   3.16    5  113    7  59.4  61.2 1020.5 -9.9 -9.999 -99.9 -99.99 -9.99
2019/10/19 11:00 PDT    3.43   3.22    5  121    7  59.5  61.2 1020.6 -9.9 -9.999 -99.9 -99.99 -9.99
2019/10/19 11:06 PDT    3.46   3.28    5  121    7  59.4  61.2 1020.5 -9.9 -9.999 -99.9 -99.99 -9.99
2019/10/19 11:12 PDT    3.50   3.32    4  117    7  59.7  61.2 1020.6 -9.9 -9.999 -99.9 -99.99 -9.99
2019/10/19 11:18 PDT    3.55   3.36    4  123    5  60.1  61.0 1020.7 -9.9 -9.999 -99.9 -99.99 -9.99
2019/10/19 11:24 PDT    3.59   3.39    4  122    6  59.9  61.0 1020.6 -9.9 -9.999 -99.9 -99.99 -9.99
2019/10/19 11:30 PDT    3.64   3.45    4  117    6  60.1  61.0 1020.5 -9.9 -9.999 -99.9 -99.99 -9.99
2019/10/19 11:36 PDT    3.70   3.51    4  131    7  60.4  61.0 1020.4 -9.9 -9.999 -99.9 -99.99 -9.99
2019/10/19 11:42 PDT    3.75   3.61    4  133    5  60.8  61.0 1020.1 -9.9 -9.999 -99.9 -99.99 -9.99
2019/10/19 11:48 PDT    3.81   3.71    3  126    6  60.6  61.0 1020.4 -9.9 -9.999 -99.9 -99.99 -9.99
2019/10/19 11:54 PDT    3.87   3.77    4  193    5  60.8  61.2 1020.3 -9.9 -9.999 -99.9 -99.99 -9.99
2019/10/19 12:00 PDT    3.94   3.80    4  239    6  61.0  61.0 1020.3 -9.9 -9.999 -99.9 -99.99 -9.99
2019/10/19 12:06 PDT    4.01   3.87    4  250    6  60.8  61.0 1020.3 -9.9 -9.999 -99.9 -99.99 -9.99
2019/10/19 12:12 PDT    4.08   3.93    4  250    5  60.8  61.0 1020.4 -9.9 -9.999 -99.9 -99.99 -9.99
2019/10/19 12:18 PDT    4.15   3.99    6  232    8  60.6  61.0 1020.1 -9.9 -9.999 -99.9 -99.99 -9.99
2019/10/19 12:24 PDT    4.22   4.09    6  223    8  60.4  61.0 1020.0 -9.9 -9.999 -99.9 -99.99 -9.99
2019/10/19 12:30 PDT    4.30   4.20    7  222    8  60.3  61.0 1019.8 -9.9 -9.999 -99.9 -99.99 -9.99
2019/10/19 12:36 PDT    4.38   4.26    6  223    7  60.3  61.0 1019.9 -9.9 -9.999 -99.9 -99.99 -9.99
2019/10/19 12:42 PDT    4.46   4.30    4  226    7  60.1  61.0 1019.8 -9.9 -9.999 -99.9 -99.99 -9.99
2019/10/19 12:48 PDT    4.54   4.41    4  226    5  60.1  61.0 1019.7 -9.9 -9.999 -99.9 -99.99 -9.99
2019/10/19 12:54 PDT    4.62   4.51    4  252    5  60.3  61.0 1019.7 -9.9 -9.999 -99.9 -99.99 -9.99
2019/10/19 13:00 PDT    4.70   4.55    4  231    5  60.3  61.0 1019.6 -9.9 -9.999 -99.9 -99.99 -9.99
2019/10/19 13:06 PDT    4.79   4.62    5  253    7  61.0  61.0 1019.6 -9.9 -9.999 -99.9 -99.99 -9.99
2019/10/19 13:12 PDT    4.87   4.72    6  267    8  61.2  61.0 1019.6 -9.9 -9.999 -99.9 -99.99 -9.99
2019/10/19 13:18 PDT    4.95   4.84    6  261    7  61.0  61.0 1019.6 -9.9 -9.999 -99.9 -99.99 -9.99
2019/10/19 13:24 PDT    5.04   4.90    6  255    7  61.2  61.0 1019.5 -9.9 -9.999 -99.9 -99.99 -9.99
2019/10/19 13:30 PDT    5.12   4.97    6  246    7  61.3  61.0 1019.5 -9.9 -9.999 -99.9 -99.99 -9.99
2019/10/19 13:36 PDT    5.20   5.04    7  241    9  61.3  61.0 1019.3 -9.9 -9.999 -99.9 -99.99 -9.99
2019/10/19 13:42 PDT    5.28   5.07    5  230    7  61.5  61.0 1019.1 -9.9 -9.999 -99.9 -99.99 -9.99
2019/10/19 13:48 PDT    5.36   5.17    4  231    6  61.3  61.0 1019.0 -9.9 -9.999 -99.9 -99.99 -9.99
2019/10/19 13:54 PDT    5.43   5.27    5  239    6  61.7  61.2 1018.9 -9.9 -9.999 -99.9 -99.99 -9.99
2019/10/19 14:00 PDT    5.51   5.35    5  246    7  61.7  61.2 1019.0 -9.9 -9.999 -99.9 -99.99 -9.99
2019/10/19 14:06 PDT    5.58   5.39    5  250    6  61.9  61.2 1019.0 -9.9 -9.999 -99.9 -99.99 -9.99
2019/10/19 14:12 PDT    5.65   5.45    5  252    6  61.9  61.2 1018.9 -9.9 -9.999 -99.9 -99.99 -9.99
2019/10/19 14:18 PDT    5.72   5.52    5  257    6  62.1  61.2 1018.9 -9.9 -9.999 -99.9 -99.99 -9.99
2019/10/19 14:24 PDT    5.78   5.57    4  235    6  62.2  61.2 1018.7 -9.9 -9.999 -99.9 -99.99 -9.99
2019/10/19 14:30 PDT    5.84   5.62    7  249    8  62.4  61.3 1018.6 -9.9 -9.999 -99.9 -99.99 -9.99
2019/10/19 14:36 PDT    5.89   5.72    6  255    7  62.6  61.3 1018.6 -9.9 -9.999 -99.9 -99.99 -9.99
2019/10/19 14:42 PDT    5.95   5.76    7  249    9  62.6  61.3 1018.5 -9.9 -9.999 -99.9 -99.99 -9.99
2019/10/19 14:48 PDT    5.99   5.79    7  257    9  62.6  61.3 1018.6 -9.9 -9.999 -99.9 -99.99 -9.99
2019/10/19 14:54 PDT    6.04   5.85    7  266   10  62.8  61.3 1018.6 -9.9 -9.999 -99.9 -99.99 -9.99
2019/10/19 15:00 PDT    6.08   5.87    9  254   11  62.2  61.3 1018.5 -9.9 -9.999 -99.9 -99.99 -9.99
2019/10/19 15:06 PDT    6.11   5.87    8  256   10  62.1  61.3 1018.4 -9.9 -9.999 -99.9 -99.99 -9.99
2019/10/19 15:12 PDT    6.14   5.91    8  252   11  61.9  61.3 1018.5 -9.9 -9.999 -99.9 -99.99 -9.99
2019/10/19 15:18 PDT    6.17   5.97    6  260   10  61.9  61.5 1018.5 -9.9 -9.999 -99.9 -99.99 -9.99
2019/10/19 15:24 PDT    6.19   6.01    6  256    8  61.7  61.3 1018.4 -9.9 -9.999 -99.9 -99.99 -9.99
2019/10/19 15:30 PDT    6.21   5.99    6  249    9  61.5  61.5 1018.4 -9.9 -9.999 -99.9 -99.99 -9.99
2019/10/19 15:36 PDT    6.22   6.01    7  261    8  61.5  61.5 1018.6 -9.9 -9.999 -99.9 -99.99 -9.99
2019/10/19 15:42 PDT    6.22   6.02    7  264    9  61.5  61.5 1018.7 -9.9 -9.999 -99.9 -99.99 -9.99
2019/10/19 15:48 PDT    6.22   5.99    7  266   10  61.3  61.5 1018.6 -9.9 -9.999 -99.9 -99.99 -9.99
2019/10/19 15:54 PDT    6.22   5.99    7  268   11  61.2  61.5 1018.6 -9.9 -9.999 -99.9 -99.99 -9.99
2019/10/19 16:00 PDT    6.21   5.99    7  260    9  60.8  61.5 1018.4 -9.9 -9.999 -99.9 -99.99 -9.99
2019/10/19 16:06 PDT    6.20   5.96    7  262    9  60.8  61.5 1018.5 -9.9 -9.999 -99.9 -99.99 -9.99
2019/10/19 16:12 PDT    6.18   5.95    7  256    9  60.4  61.5 1018.3 -9.9 -9.999 -99.9 -99.99 -9.99
2019/10/19 16:18 PDT    6.15   5.92    8  246   10  60.4  61.5 1018.4 -9.9 -9.999 -99.9 -99.99 -9.99
2019/10/19 16:24 PDT    6.12   5.88    8  249   10  60.3  61.5 1018.3 -9.9 -9.999 -99.9 -99.99 -9.99
2019/10/19 16:30 PDT    6.09   5.81    9  243   12  60.1  61.5 1018.2 -9.9 -9.999 -99.9 -99.99 -9.99
2019/10/19 16:36 PDT    6.05   5.77   11  234   13  59.9  61.5 1018.2 -9.9 -9.999 -99.9 -99.99 -9.99
2019/10/19 16:42 PDT    6.00   5.75    9  236   12  59.7  61.5 1018.2 -9.9 -9.999 -99.9 -99.99 -9.99
2019/10/19 16:48 PDT    5.95   5.68   10  233   12  59.4  61.5 1018.2 -9.9 -9.999 -99.9 -99.99 -9.99
2019/10/19 16:54 PDT    5.89   5.56   10  238   12  59.2  61.5 1018.1 -9.9 -9.999 -99.9 -99.99 -9.99
2019/10/19 17:00 PDT    5.83   5.47   10  236   12  59.2  61.5 1018.1 -9.9 -9.999 -99.9 -99.99 -9.99
2019/10/19 17:06 PDT    5.77   5.39    9  241   13  59.4  61.5 1018.2 -9.9 -9.999 -99.9 -99.99 -9.99
2019/10/19 17:12 PDT    5.69   5.32    9  257   11  59.2  61.5 1018.2 -9.9 -9.999 -99.9 -99.99 -9.99
2019/10/19 17:18 PDT    5.62   5.27   10  258   12  59.2  61.7 1018.2 -9.9 -9.999 -99.9 -99.99 -9.99
2019/10/19 17:24 PDT    5.53   5.16    8  261   11  58.8  61.7 1018.3 -9.9 -9.999 -99.9 -99.99 -9.99
2019/10/19 17:30 PDT    5.45   5.04    7  259   10  58.6  61.7 1018.2 -9.9 -9.999 -99.9 -99.99 -9.99
2019/10/19 17:36 PDT    5.35   4.89    6  254    9  58.6  61.7 1018.2 -9.9 -9.999 -99.9 -99.99 -9.99
2019/10/19 17:42 PDT    5.26   4.82    5  265    9  58.5  61.7 1018.1 -9.9 -9.999 -99.9 -99.99 -9.99
2019/10/19 17:48 PDT    5.15   4.73    5  254    7  58.1  61.7 1018.1 -9.9 -9.999 -99.9 -99.99 -9.99
2019/10/19 17:54 PDT    5.05   4.63    5  261    8  58.1  61.7 1017.9 -9.9 -9.999 -99.9 -99.99 -9.99
2019/10/19 18:00 PDT    4.94   4.50    5  244    7  57.9  61.7 1018.0 -9.9 -9.999 -99.9 -99.99 -9.99
2019/10/19 18:06 PDT    4.82   4.38    3  248    5  58.3  61.7 1017.9 -9.9 -9.999 -99.9 -99.99 -9.99
2019/10/19 18:12 PDT    4.70   4.24    3  187    6  58.1  61.7 1017.9 -9.9 -9.999 -99.9 -99.99 -9.99
2019/10/19 18:18 PDT    4.58   4.13    1  160    4  58.3  61.7 1017.8 -9.9 -9.999 -99.9 -99.99 -9.99
2019/10/19 18:24 PDT    4.45   4.00    2  177    4  58.3  61.7 1017.7 -9.9 -9.999 -99.9 -99.99 -9.99
2019/10/19 18:30 PDT    4.32   3.83    3  127    4  58.5  61.7 1017.8 -9.9 -9.999 -99.9 -99.99 -9.99
2019/10/19 18:36 PDT    4.19   3.70    3  211    5  58.3  61.7 1017.8 -9.9 -9.999 -99.9 -99.99 -9.99
2019/10/19 18:42 PDT    4.05   3.63    4  201    5  58.1  61.7 1017.6 -9.9 -9.999 -99.9 -99.99 -9.99
2019/10/19 18:48 PDT    3.92   3.52    3  155    5  58.5  61.7 1017.6 -9.9 -9.999 -99.9 -99.99 -9.99
2019/10/19 18:54 PDT    3.78   3.34    3  173    5  58.3  61.7 1017.6 -9.9 -9.999 -99.9 -99.99 -9.99
2019/10/19 19:00 PDT    3.63   3.20    4  112    5  58.5  61.7 1017.7 -9.9 -9.999 -99.9 -99.99 -9.99
2019/10/19 19:06 PDT    3.49   3.09    2   87    5  58.6  61.7 1017.9 -9.9 -9.999 -99.9 -99.99 -9.99
2019/10/19 19:12 PDT    3.35   2.98    3   93    4  58.6  61.7 1018.0 -9.9 -9.999 -99.9 -99.99 -9.99
2019/10/19 19:18 PDT    3.20   2.84    4   94    5  58.6  61.7 1017.9 -9.9 -9.999 -99.9 -99.99 -9.99
2019/10/19 19:24 PDT    3.06   2.72    4   90    6  58.6  61.7 1017.9 -9.9 -9.999 -99.9 -99.99 -9.99
2019/10/19 19:30 PDT    2.92   2.58    4   96    6  58.8  61.7 1017.7 -9.9 -9.999 -99.9 -99.99 -9.99
2019/10/19 19:36 PDT    2.77   2.42    4  109    6  58.8  61.7 1017.9 -9.9 -9.999 -99.9 -99.99 -9.99
2019/10/19 19:42 PDT    2.63   2.28    3  120    6  58.6  61.7 1018.1 -9.9 -9.999 -99.9 -99.99 -9.99
2019/10/19 19:48 PDT    2.49   2.21    4  112    5  58.8  61.7 1018.1 -9.9 -9.999 -99.9 -99.99 -9.99
2019/10/19 19:54 PDT    2.36   2.12    4  109    6  58.8  61.7 1018.0 -9.9 -9.999 -99.9 -99.99 -9.99
2019/10/19 20:00 PDT    2.22   1.99    5  106    6  58.6  61.7 1018.1 -9.9 -9.999 -99.9 -99.99 -9.99
2019/10/19 20:06 PDT    2.09   1.87    4   97    5  58.5  61.7 1018.3 -9.9 -9.999 -99.9 -99.99 -9.99
2019/10/19 20:12 PDT    1.96   1.78    4   96    7  58.1  61.7 1018.5 -9.9 -9.999 -99.9 -99.99 -9.99
2019/10/19 20:18 PDT    1.83   1.68    5  102    6  58.3  61.7 1018.4 -9.9 -9.999 -99.9 -99.99 -9.99
2019/10/19 20:24 PDT    1.71   1.53    4  103    5  58.3  61.7 1018.5 -9.9 -9.999 -99.9 -99.99 -9.99
2019/10/19 20:30 PDT    1.59   1.41    4  109    4  58.3  61.7 1018.5 -9.9 -9.999 -99.9 -99.99 -9.99
2019/10/19 20:36 PDT    1.48   1.32    4  107    5  58.3  61.7 1018.6 -9.9 -9.999 -99.9 -99.99 -9.99
2019/10/19 20:42 PDT    1.37   1.25    3   93    5  58.1  61.7 1018.6 -9.9 -9.999 -99.9 -99.99 -9.99
2019/10/19 20:48 PDT    1.26   1.15    4  110    5  58.1  61.7 1018.6 -9.9 -9.999 -99.9 -99.99 -9.99
2019/10/19 20:54 PDT    1.17   1.05    4  102    5  58.1  61.7 1018.6 -9.9 -9.999 -99.9 -99.99 -9.99
2019/10/19 21:00 PDT    1.07   0.94    4   98    5  57.9  61.7 1018.6 -9.9 -9.999 -99.9 -99.99 -9.99
2019/10/19 21:06 PDT    0.98   0.87    3  111    4  57.9  61.7 1018.5 -9.9 -9.999 -99.9 -99.99 -9.99
2019/10/19 21:12 PDT    0.90   0.77    4  111    6  58.1  61.7 1018.6 -9.9 -9.999 -99.9 -99.99 -9.99
2019/10/19 21:18 PDT    0.82   0.68    5  116    5  57.9  61.7 1018.6 -9.9 -9.999 -99.9 -99.99 -9.99
2019/10/19 21:24 PDT    0.74   0.60    4  107    6  58.1  61.7 1018.6 -9.9 -9.999 -99.9 -99.99 -9.99
2019/10/19 21:30 PDT    0.68   0.56    3  112    5  57.9  61.7 1018.6 -9.9 -9.999 -99.9 -99.99 -9.99
2019/10/19 21:36 PDT    0.61   0.50    4  113    5  57.9  61.7 1018.7 -9.9 -9.999 -99.9 -99.99 -9.99
2019/10/19 21:42 PDT    0.55   0.44    4  113    5  57.9  61.7 1018.7 -9.9 -9.999 -99.9 -99.99 -9.99
2019/10/19 21:48 PDT    0.50   0.37    4  118    6  57.9  61.5 1018.6 -9.9 -9.999 -99.9 -99.99 -9.99
2019/10/19 21:54 PDT    0.46   0.30    3  115    6  57.9  61.5 1018.7 -9.9 -9.999 -99.9 -99.99 -9.99
2019/10/19 22:00 PDT    0.41   0.23    4  113    5  57.7  61.5 1018.8 -9.9 -9.999 -99.9 -99.99 -9.99
2019/10/19 22:06 PDT    0.38   0.19    4  101    4  57.7  61.5 1018.9 -9.9 -9.999 -99.9 -99.99 -9.99
2019/10/19 22:12 PDT    0.34   0.17    4  112    5  57.7  61.5 1018.9 -9.9 -9.999 -99.9 -99.99 -9.99
2019/10/19 22:18 PDT    0.32   0.17    4  120    5  57.7  61.5 1018.9 -9.9 -9.999 -99.9 -99.99 -9.99
2019/10/19 22:24 PDT    0.30   0.12    4  130    4  57.7  61.5 1019.0 -9.9 -9.999 -99.9 -99.99 -9.99
2019/10/19 22:30 PDT    0.28   0.05    4  119    5  57.7  61.5 1019.2 -9.9 -9.999 -99.9 -99.99 -9.99
2019/10/19 22:36 PDT    0.27   0.02    3  110    5  57.9  61.7 1019.1 -9.9 -9.999 -99.9 -99.99 -9.99
2019/10/19 22:42 PDT    0.26   0.02    3  116    4  57.9  61.7 1019.2 -9.9 -9.999 -99.9 -99.99 -9.99
2019/10/19 22:48 PDT    0.26  -0.00    3  133    5  57.9  61.5 1019.2 -9.9 -9.999 -99.9 -99.99 -9.99
2019/10/19 22:54 PDT    0.26  -0.05    3  115    4  58.1  61.5 1019.2 -9.9 -9.999 -99.9 -99.99 -9.99
2019/10/19 23:00 PDT    0.26  -0.05    3  130    4  57.7  61.5 1019.3 -9.9 -9.999 -99.9 -99.99 -9.99
2019/10/19 23:06 PDT    0.27  -0.02    2  124    4  57.7  61.5 1019.2 -9.9 -9.999 -99.9 -99.99 -9.99
2019/10/19 23:12 PDT    0.29  -0.00    3  122    3  57.9  61.5 1019.3 -9.9 -9.999 -99.9 -99.99 -9.99
2019/10/19 23:18 PDT    0.30   0.00    2  150    3  57.7  61.5 1019.3 -9.9 -9.999 -99.9 -99.99 -9.99
2019/10/19 23:24 PDT    0.33   0.01    2  135    4  57.7  61.5 1019.2 -9.9 -9.999 -99.9 -99.99 -9.99
2019/10/19 23:30 PDT    0.35   0.02    2  145    3  57.7  61.5 1019.2 -9.9 -9.999 -99.9 -99.99 -9.99
2019/10/19 23:36 PDT    0.38   0.06    2  119    2  57.9  61.3 1019.4 -9.9 -9.999 -99.9 -99.99 -9.99
2019/10/19 23:42 PDT    0.42   0.10    2  122    3  57.9  61.3 1019.4 -9.9 -9.999 -99.9 -99.99 -9.99
2019/10/19 23:48 PDT    0.46   0.12    2  128    3  57.9  61.3 1019.3 -9.9 -9.999 -99.9 -99.99 -9.99
2019/10/19 23:54 PDT    0.50   0.15    2   97    2  57.6  61.3 1019.3 -9.9 -9.999 -99.9 -99.99 -9.99
2019/10/20 00:00 PDT    0.55   0.19    1   97    2  57.7  61.3 1019.3 -9.9 -9.999 -99.9 -99.99 -9.99
2019/10/20 00:06 PDT    0.60   0.24    2   99    3  57.6  61.3 1019.3 -9.9 -9.999 -99.9 -99.99 -9.99
2019/10/20 00:12 PDT    0.65   0.28    3   97    4  57.6  61.3 1019.2 -9.9 -9.999 -99.9 -99.99 -9.99
2019/10/20 00:18 PDT    0.71   0.35    3   99    4  57.6  61.3 1019.3 -9.9 -9.999 -99.9 -99.99 -9.99
2019/10/20 00:24 PDT    0.77   0.42    2   98    4  57.6  61.3 1019.2 -9.9 -9.999 -99.9 -99.99 -9.99
2019/10/20 00:30 PDT    0.83   0.48    1   96    2  57.6  61.3 1019.1 -9.9 -9.999 -99.9 -99.99 -9.99
2019/10/20 00:36 PDT    0.90   0.55    2  125    3  57.7  61.3 1019.1 -9.9 -9.999 -99.9 -99.99 -9.99
2019/10/20 00:42 PDT    0.97   0.63    3   98    3  57.6  61.3 1019.2 -9.9 -9.999 -99.9 -99.99 -9.99
2019/10/20 00:48 PDT    1.04   0.70    2  109    4  57.6  61.3 1019.2 -9.9 -9.999 -99.9 -99.99 -9.99
2019/10/20 00:54 PDT    1.12   0.77    3  106    4  57.4  61.3 1019.1 -9.9 -9.999 -99.9 -99.99 -9.99
2019/10/20 01:00 PDT    1.20   0.89    2   96    3  57.2  61.3 1019.1 -9.9 -9.999 -99.9 -99.99 -9.99
2019/10/20 01:06 PDT    1.28   1.01    3   97    4  57.4  61.3 1019.0 -9.9 -9.999 -99.9 -99.99 -9.99
2019/10/20 01:12 PDT    1.37   1.09    2  103    3  57.4  61.3 1019.0 -9.9 -9.999 -99.9 -99.99 -9.99
2019/10/20 01:18 PDT    1.45   1.15    3   88    3  57.0  61.3 1019.0 -9.9 -9.999 -99.9 -99.99 -9.99
2019/10/20 01:24 PDT    1.54   1.22    2   88    3  56.8  61.3 1019.0 -9.9 -9.999 -99.9 -99.99 -9.99
2019/10/20 01:30 PDT    1.63   1.32    2   79    3  57.0  61.3 1019.0 -9.9 -9.999 -99.9 -99.99 -9.99
2019/10/20 01:36 PDT    1.72   1.44    2   77    3  57.0  61.3 1019.0 -9.9 -9.999 -99.9 -99.99 -9.99
2019/10/20 01:42 PDT    1.81   1.55    1   80    2  57.0  61.3 1019.2 -9.9 -9.999 -99.9 -99.99 -9.99
2019/10/20 01:48 PDT    1.91   1.64    2   81    3  56.8  61.3 1019.2 -9.9 -9.999 -99.9 -99.99 -9.99
2019/10/20 01:54 PDT    2.00   1.74    1   91    3  56.7  61.3 1019.3 -9.9 -9.999 -99.9 -99.99 -9.99
2019/10/20 02:00 PDT    2.10   1.86    3   91    4  56.7  61.3 1019.3 -9.9 -9.999 -99.9 -99.99 -9.99
2019/10/20 02:06 PDT    2.20   1.97    3   89    4  56.7  61.3 1019.3 -9.9 -9.999 -99.9 -99.99 -9.99
2019/10/20 02:12 PDT    2.29   2.05    2   79    4  56.8  61.3 1019.4 -9.9 -9.999 -99.9 -99.99 -9.99
2019/10/20 02:18 PDT    2.39   2.16    1   58    2  56.7  61.3 1019.5 -9.9 -9.999 -99.9 -99.99 -9.99
2019/10/20 02:24 PDT    2.49   2.29    0   58    2  56.8  61.3 1019.5 -9.9 -9.999 -99.9 -99.99 -9.99
2019/10/20 02:30 PDT    2.58   2.39    0  115    1  57.0  61.3 1019.6 -9.9 -9.999 -99.9 -99.99 -9.99
2019/10/20 02:36 PDT    2.68   2.48    2   96    2  56.8  61.3 1019.5 -9.9 -9.999 -99.9 -99.99 -9.99
2019/10/20 02:42 PDT    2.77   2.56    2   52    2  57.0  61.3 1019.5 -9.9 -9.999 -99.9 -99.99 -9.99
2019/10/20 02:48 PDT    2.87   2.68    2   22    2  56.5  61.3 1019.5 -9.9 -9.999 -99.9 -99.99 -9.99
2019/10/20 02:54 PDT    2.96   2.80    1   38    2  56.3  61.3 1019.5 -9.9 -9.999 -99.9 -99.99 -9.99
2019/10/20 03:00 PDT    3.05   2.90    2   87    3  56.8  61.3 1019.5 -9.9 -9.999 -99.9 -99.99 -9.99
2019/10/20 03:06 PDT    3.14   2.97    2   89    3  56.8  61.3 1019.5 -9.9 -9.999 -99.9 -99.99 -9.99
2019/10/20 03:12 PDT    3.24   3.05    1   92    3  56.7  61.2 1019.5 -9.9 -9.999 -99.9 -99.99 -9.99
2019/10/20 03:18 PDT    3.32   3.14    1   33    2  56.5  61.2 1019.6 -9.9 -9.999 -99.9 -99.99 -9.99
2019/10/20 03:24 PDT    3.41   3.24    1   80    2  56.7  61.2 1019.6 -9.9 -9.999 -99.9 -99.99 -9.99
2019/10/20 03:30 PDT    3.50   3.34    2   83    2  56.7  61.2 1019.6 -9.9 -9.999 -99.9 -99.99 -9.99
2019/10/20 03:36 PDT    3.58   3.44    1   65    2  56.7  61.2 1019.6 -9.9 -9.999 -99.9 -99.99 -9.99
2019/10/20 03:42 PDT    3.66   3.52    1   65    2  56.8  61.2 1019.5 -9.9 -9.999 -99.9 -99.99 -9.99
2019/10/20 03:48 PDT    3.74   3.60    1   47    2  56.1  61.2 1019.5 -9.9 -9.999 -99.9 -99.99 -9.99
2019/10/20 03:54 PDT    3.82   3.68    1   26    3  55.4  61.2 1019.6 -9.9 -9.999 -99.9 -99.99 -9.99
2019/10/20 04:00 PDT    3.90   3.75    1  354    2  55.2  61.2 1019.7 -9.9 -9.999 -99.9 -99.99 -9.99
2019/10/20 04:06 PDT    3.97   3.83    1  358    2  55.4  61.2 1019.6 -9.9 -9.999 -99.9 -99.99 -9.99
2019/10/20 04:12 PDT    4.05   3.94    2  351    3  55.6  61.2 1019.5 -9.9 -9.999 -99.9 -99.99 -9.99
2019/10/20 04:18 PDT    4.12   4.00    2   11    3  55.6  61.2 1019.6 -9.9 -9.999 -99.9 -99.99 -9.99
2019/10/20 04:24 PDT    4.19   4.06    1   18    3  55.6  61.0 1019.5 -9.9 -9.999 -99.9 -99.99 -9.99
2019/10/20 04:30 PDT    4.25   4.15    2   28    3  55.4  61.0 1019.5 -9.9 -9.999 -99.9 -99.99 -9.99
2019/10/20 04:36 PDT    4.32   4.23    1   41    2  55.6  61.0 1019.4 -9.9 -9.999 -99.9 -99.99 -9.99
2019/10/20 04:42 PDT    4.38   4.26    0   36    1  55.4  61.0 1019.3 -9.9 -9.999 -99.9 -99.99 -9.99
2019/10/20 04:48 PDT    4.44   4.34    1    0    1  55.4  61.0 1019.2 -9.9 -9.999 -99.9 -99.99 -9.99
2019/10/20 04:54 PDT    4.49   4.43    1  343    1  55.6  61.0 1019.2 -9.9 -9.999 -99.9 -99.99 -9.99
2019/10/20 05:00 PDT    4.55   4.47    0   14    2  55.6  61.0 1019.3 -9.9 -9.999 -99.9 -99.99 -9.99
2019/10/20 05:06 PDT    4.60   4.52    1  321    1  55.8  61.0 1019.3 -9.9 -9.999 -99.9 -99.99 -9.99
2019/10/20 05:12 PDT    4.64   4.59    1  281    2  55.9  61.0 1019.3 -9.9 -9.999 -99.9 -99.99 -9.99
2019/10/20 05:18 PDT    4.69   4.63    1  315    2  56.1  61.0 1019.5 -9.9 -9.999 -99.9 -99.99 -9.99
2019/10/20 05:24 PDT    4.73   4.66    1  269    1  56.3  61.0 1019.5 -9.9 -9.999 -99.9 -99.99 -9.99
2019/10/20 05:30 PDT    4.77   4.68    0  305    1  56.3  61.0 1019.5 -9.9 -9.999 -99.9 -99.99 -9.99
2019/10/20 05:36 PDT    4.80   4.73    1  298    1  56.1  61.0 1019.4 -9.9 -9.999 -99.9 -99.99 -9.99
2019/10/20 05:42 PDT    4.83   4.77    1  281    2  56.3  61.0 1019.4 -9.9 -9.999 -99.9 -99.99 -9.99
2019/10/20 05:48 PDT    4.86   4.81    1  287    2  56.3  61.0 1019.5 -9.9 -9.999 -99.9 -99.99 -9.99
2019/10/20 05:54 PDT    4.89   4.83    0   14    1  55.9  61.0 1019.6 -9.9 -9.999 -99.9 -99.99 -9.99
2019/10/20 06:00 PDT    4.90   4.84    1  318    1  55.9  61.0 1019.6 -9.9 -9.999 -99.9 -99.99 -9.99
2019/10/20 06:06 PDT    4.92   4.83    0  344    1  55.9  61.0 1019.6 -9.9 -9.999 -99.9 -99.99 -9.99
2019/10/20 06:12 PDT    4.93   4.83    1  346    2  55.9  61.0 1019.7 -9.9 -9.999 -99.9 -99.99 -9.99
2019/10/20 06:18 PDT    4.94   4.84    1  268    1  56.1  61.0 1019.6 -9.9 -9.999 -99.9 -99.99 -9.99
2019/10/20 06:24 PDT    4.94   4.88    1  284    1  56.1  61.0 1019.7 -9.9 -9.999 -99.9 -99.99 -9.99
2019/10/20 06:30 PDT    4.94   4.89    0   34    2  55.8  61.0 1019.7 -9.9 -9.999 -99.9 -99.99 -9.99
2019/10/20 06:36 PDT    4.94   4.87    0   77    1  55.2  61.0 1019.7 -9.9 -9.999 -99.9 -99.99 -9.99
2019/10/20 06:42 PDT    4.93   4.84    0  331    1  55.6  61.0 1019.8 -9.9 -9.999 -99.9 -99.99 -9.99
2019/10/20 06:48 PDT    4.91   4.84    2    7    2  55.4  61.0 1020.0 -9.9 -9.999 -99.9 -99.99 -9.99
2019/10/20 06:54 PDT    4.90   4.83    1    5    2  55.2  61.0 1020.1 -9.9 -9.999 -99.9 -99.99 -9.99
2019/10/20 07:00 PDT    4.88   4.80    2  343    3  55.0  61.0 1020.2 -9.9 -9.999 -99.9 -99.99 -9.99
2019/10/20 07:06 PDT    4.85   4.76    3  336    5  54.9  61.0 1020.1 -9.9 -9.999 -99.9 -99.99 -9.99
2019/10/20 07:12 PDT    4.82   4.74    3  349    5  54.9  61.0 1020.1 -9.9 -9.999 -99.9 -99.99 -9.99
2019/10/20 07:18 PDT    4.79   4.74    2  359    5  54.9  61.0 1020.1 -9.9 -9.999 -99.9 -99.99 -9.99
2019/10/20 07:24 PDT    4.76   4.70    2  320    4  55.2  61.0 1020.0 -9.9 -9.999 -99.9 -99.99 -9.99
2019/10/20 07:30 PDT    4.72   4.63    1  337    3  55.4  61.0 1020.0 -9.9 -9.999 -99.9 -99.99 -9.99
2019/10/20 07:36 PDT    4.68   4.59    2  319    4  55.6  61.0 1020.1 -9.9 -9.999 -99.9 -99.99 -9.99
2019/10/20 07:42 PDT    4.64   4.57    3  320    5  55.9  61.0 1020.1 -9.9 -9.999 -99.9 -99.99 -9.99
2019/10/20 07:48 PDT    4.59   4.55    2  318    5  56.1  61.0 1020.1 -9.9 -9.999 -99.9 -99.99 -9.99
2019/10/20 07:54 PDT    4.54   4.49    3  318    5  56.3  61.0 1020.2 -9.9 -9.999 -99.9 -99.99 -9.99
2019/10/20 08:00 PDT    4.50   4.44    4  346    8  56.5  61.0 1020.2 -9.9 -9.999 -99.9 -99.99 -9.99
2019/10/20 08:06 PDT    4.45   4.40    3  346    8  57.0  61.0 1020.4 -9.9 -9.999 -99.9 -99.99 -9.99
2019/10/20 08:12 PDT    4.39   4.31    4  349    8  57.2  61.0 1020.4 -9.9 -9.999 -99.9 -99.99 -9.99
2019/10/20 08:18 PDT    4.34   4.26    5  355    8  57.4  61.0 1020.4 -9.9 -9.999 -99.9 -99.99 -9.99
2019/10/20 08:24 PDT    4.29   4.23    5  355    7  57.4  61.0 1020.4 -9.9 -9.999 -99.9 -99.99 -9.99
2019/10/20 08:30 PDT    4.24   4.18    3  356    8  57.6  61.0 1020.5 -9.9 -9.999 -99.9 -99.99 -9.99
2019/10/20 08:36 PDT    4.18   4.10    5  341    9  57.6  61.0 1020.6 -9.9 -9.999 -99.9 -99.99 -9.99
2019/10/20 08:42 PDT    4.13   4.04    4  353    7  57.6  61.0 1020.7 -9.9 -9.999 -99.9 -99.99 -9.99
2019/10/20 08:48 PDT    4.08   3.99    3  344    6  57.7  61.0 1020.7 -9.9 -9.999 -99.9 -99.99 -9.99
2019/10/20 08:54 PDT    4.03   3.95    3  343    6  58.1  61.0 1020.8 -9.9 -9.999 -99.9 -99.99 -9.99
2019/10/20 09:00 PDT    3.98   3.88    4  337    9  58.1  61.0 1021.0 -9.9 -9.999 -99.9 -99.99 -9.99
2019/10/20 09:06 PDT    3.93   3.82    4  344    7  58.1  61.0 1021.0 -9.9 -9.999 -99.9 -99.99 -9.99
2019/10/20 09:12 PDT    3.88   3.77    3  333    8  58.5  61.0 1021.2 -9.9 -9.999 -99.9 -99.99 -9.99
2019/10/20 09:18 PDT    3.83   3.75    5  352    7  58.3  61.0 1021.3 -9.9 -9.999 -99.9 -99.99 -9.99
2019/10/20 09:24 PDT    3.79   3.72    4  317    7  58.5  61.0 1021.4 -9.9 -9.999 -99.9 -99.99 -9.99
2019/10/20 09:30 PDT    3.75   3.63    4  312    7  58.8  61.0 1021.4 -9.9 -9.999 -99.9 -99.99 -9.99
2019/10/20 09:36 PDT    3.71   3.59    2  318    5  59.2  61.0 1021.3 -9.9 -9.999 -99.9 -99.99 -9.99
2019/10/20 09:42 PDT    3.67   3.57    4  319    7  59.4  61.0 1021.4 -9.9 -9.999 -99.9 -99.99 -9.99
2019/10/20 09:48 PDT    3.63   3.55    5  345    7  59.5  61.0 1021.5 -9.9 -9.999 -99.9 -99.99 -9.99
2019/10/20 09:54 PDT    3.60   3.51    5  335    9  59.5  61.0 1021.6 -9.9 -9.999 -99.9 -99.99 -9.99
2019/10/20 10:00 PDT    3.57   3.48    5  339    8  59.9  61.0 1021.7 -9.9 -9.999 -99.9 -99.99 -9.99
2019/10/20 10:06 PDT    3.54   3.46    5  354    8  60.3  61.0 1021.7 -9.9 -9.999 -99.9 -99.99 -9.99
2019/10/20 10:12 PDT    3.52   3.42    4  319    7  60.6  61.0 1021.6 -9.9 -9.999 -99.9 -99.99 -9.99
2019/10/20 10:18 PDT    3.49   3.39    5  318    7  60.8  61.0 1021.6 -9.9 -9.999 -99.9 -99.99 -9.99
2019/10/20 10:24 PDT    3.47   3.38    3  304    5  61.5  61.0 1021.7 -9.9 -9.999 -99.9 -99.99 -9.99
2019/10/20 10:30 PDT    3.46   3.36    3  300    5  61.9  61.0 1021.7 -9.9 -9.999 -99.9 -99.99 -9.99
2019/10/20 10:36 PDT    3.44   3.33    3  311    5  62.1  61.0 1021.7 -9.9 -9.999 -99.9 -99.99 -9.99
2019/10/20 10:42 PDT    3.43   3.31    4  305    5  62.1  61.0 1021.7 -9.9 -9.999 -99.9 -99.99 -9.99
2019/10/20 10:48 PDT    3.42   3.29    3  301    6  62.4  61.0 1021.7 -9.9 -9.999 -99.9 -99.99 -9.99
2019/10/20 10:54 PDT    3.41   3.30    3  316    5  62.6  61.0 1021.7 -9.9 -9.999 -99.9 -99.99 -9.99
2019/10/20 11:00 PDT    3.41   3.28    3  301    5  63.0  61.0 1021.6 -9.9 -9.999 -99.9 -99.99 -9.99
2019/10/20 11:06 PDT    3.40   3.26    3  296    4  63.3  61.0 1021.6 -9.9 -9.999 -99.9 -99.99 -9.99
2019/10/20 11:12 PDT    3.41   3.25    3  296    5  63.5  61.0 1021.6 -9.9 -9.999 -99.9 -99.99 -9.99
2019/10/20 11:18 PDT    3.41   3.28    3  293    4  64.2  61.0 1021.6 -9.9 -9.999 -99.9 -99.99 -9.99
2019/10/20 11:24 PDT    3.42   3.30    2  269    4  64.0  61.0 1021.5 -9.9 -9.999 -99.9 -99.99 -9.99
2019/10/20 11:30 PDT    3.43   3.33    5  256    6  60.8  61.0 1021.6 -9.9 -9.999 -99.9 -99.99 -9.99
2019/10/20 11:36 PDT    3.44   3.34    4  264    6  61.2  61.0 1021.7 -9.9 -9.999 -99.9 -99.99 -9.99
2019/10/20 11:42 PDT    3.46   3.34    5  277    7  61.7  61.0 1021.9 -9.9 -9.999 -99.9 -99.99 -9.99
2019/10/20 11:48 PDT    3.48   3.37    5  275    7  62.2  61.0 1021.8 -9.9 -9.999 -99.9 -99.99 -9.99
2019/10/20 11:54 PDT    3.50   3.39    5  274    7  62.8  61.0 1021.7 -9.9 -9.999 -99.9 -99.99 -9.99
2019/10/20 12:00 PDT    3.52   3.43    4  271    6  64.4  61.0 1021.7 -9.9 -9.999 -99.9 -99.99 -9.99
2019/10/20 12:06 PDT    3.55   3.47    4  280    6  64.2  61.0 1021.6 -9.9 -9.999 -99.9 -99.99 -9.99
2019/10/20 12:12 PDT    3.59   3.49    4  276    6  64.4  61.0 1021.6 -9.9 -9.999 -99.9 -99.99 -9.99
2019/10/20 12:18 PDT    3.62   3.51    4  271    6  64.8  61.0 1021.6 -9.9 -9.999 -99.9 -99.99 -9.99
2019/10/20 12:24 PDT    3.66   3.54    4  260    5  63.0  61.0 1021.6 -9.9 -9.999 -99.9 -99.99 -9.99
2019/10/20 12:30 PDT    3.70   3.60    3  259    5  62.4  61.0 1021.5 -9.9 -9.999 -99.9 -99.99 -9.99
2019/10/20 12:36 PDT    3.74   3.64    5  248    5  61.9  61.0 1021.5 -9.9 -9.999 -99.9 -99.99 -9.99
2019/10/20 12:42 PDT    3.79   3.71    4  259    6  61.7  61.0 1021.5 -9.9 -9.999 -99.9 -99.99 -9.99
2019/10/20 12:48 PDT    3.84   3.75    6  259    6  61.5  61.0 1021.6 -9.9 -9.999 -99.9 -99.99 -9.99
2019/10/20 12:54 PDT    3.90   3.78    3  265    5  61.9  61.0 1021.6 -9.9 -9.999 -99.9 -99.99 -9.99
2019/10/20 13:00 PDT    3.95   3.83    4  259    5  62.4  61.0 1021.4 -9.9 -9.999 -99.9 -99.99 -9.99
2019/10/20 13:06 PDT    4.01   3.91    3  247    4  61.5  61.0 1021.2 -9.9 -9.999 -99.9 -99.99 -9.99
2019/10/20 13:12 PDT    4.07   3.97    3  246    4  62.6  61.2 1021.1 -9.9 -9.999 -99.9 -99.99 -9.99
2019/10/20 13:18 PDT    4.14   4.03    2  252    3  63.1  61.2 1020.9 -9.9 -9.999 -99.9 -99.99 -9.99
2019/10/20 13:24 PDT    4.20   4.08    2  251    3  63.1  61.2 1020.9 -9.9 -9.999 -99.9 -99.99 -9.99
2019/10/20 13:30 PDT    4.27   4.14    3  248    3  63.9  61.2 1020.8 -9.9 -9.999 -99.9 -99.99 -9.99
2019/10/20 13:36 PDT    4.34   4.19    3  247    3  63.5  61.2 1020.8 -9.9 -9.999 -99.9 -99.99 -9.99
2019/10/20 13:42 PDT    4.41   4.25    3  236    3  64.2  61.2 1020.7 -9.9 -9.999 -99.9 -99.99 -9.99
2019/10/20 13:48 PDT    4.49   4.32    2  231    3  64.6  61.2 1020.6 -9.9 -9.999 -99.9 -99.99 -9.99
2019/10/20 13:54 PDT    4.56   4.41    3  231    3  64.4  61.2 1020.5 -9.9 -9.999 -99.9 -99.99 -9.99
2019/10/20 14:00 PDT    4.64   4.47    3  212    3  64.6  61.2 1020.4 -9.9 -9.999 -99.9 -99.99 -9.99
2019/10/20 14:06 PDT    4.71   4.55    3  199    3  64.0  61.2 1020.3 -9.9 -9.999 -99.9 -99.99 -9.99
2019/10/20 14:12 PDT    4.79   4.64    3  207    3  63.9  61.2 1020.2 -9.9 -9.999 -99.9 -99.99 -9.99
2019/10/20 14:18 PDT    4.86   4.70    3  228    3  64.2  61.2 1020.2 -9.9 -9.999 -99.9 -99.99 -9.99
2019/10/20 14:24 PDT    4.94   4.74    4  246    6  64.9  61.2 1020.2 -9.9 -9.999 -99.9 -99.99 -9.99
2019/10/20 14:30 PDT    5.01   4.78    6  264    8  66.2  61.2 1020.2 -9.9 -9.999 -99.9 -99.99 -9.99
2019/10/20 14:36 PDT    5.09   4.85    7  279    8  66.9  61.2 1020.3 -9.9 -9.999 -99.9 -99.99 -9.99
2019/10/20 14:42 PDT    5.16   4.93    7  268   10  66.2  61.2 1020.2 -9.9 -9.999 -99.9 -99.99 -9.99
2019/10/20 14:48 PDT    5.23   5.01    8  262    9  65.3  61.2 1020.1 -9.9 -9.999 -99.9 -99.99 -9.99
2019/10/20 14:54 PDT    5.30   5.06    8  264   10  65.3  61.0 1020.1 -9.9 -9.999 -99.9 -99.99 -9.99
2019/10/20 15:00 PDT    5.37   5.11    7  259   10  65.5  61.2 1020.0 -9.9 -9.999 -99.9 -99.99 -9.99
2019/10/20 15:06 PDT    5.44   5.16    6  260    9  64.9  61.2 1019.8 -9.9 -9.999 -99.9 -99.99 -9.99
2019/10/20 15:12 PDT    5.50   5.20    7  262    8  64.8  61.2 1019.7 -9.9 -9.999 -99.9 -99.99 -9.99
2019/10/20 15:18 PDT    5.56   5.24    4  258    6  65.3  61.2 1019.8 -9.9 -9.999 -99.9 -99.99 -9.99
2019/10/20 15:24 PDT    5.62   5.30    4  262    5  65.1  61.2 1019.7 -9.9 -9.999 -99.9 -99.99 -9.99
2019/10/20 15:30 PDT    5.67   5.38    3  255    5  65.1  61.2 1019.5 -9.9 -9.999 -99.9 -99.99 -9.99
2019/10/20 15:36 PDT    5.72   5.42    3  244    4  65.8  61.3 1019.4 -9.9 -9.999 -99.9 -99.99 -9.99
2019/10/20 15:42 PDT    5.77   5.44    3  242    3  66.0  61.3 1019.4 -9.9 -9.999 -99.9 -99.99 -9.99
2019/10/20 15:48 PDT    5.82   5.48    2  211    3  66.0  61.3 1019.5 -9.9 -9.999 -99.9 -99.99 -9.99
2019/10/20 15:54 PDT    5.86   5.54    2  205    2  66.2  61.3 1019.6 -9.9 -9.999 -99.9 -99.99 -9.99
2019/10/20 16:00 PDT    5.89   5.60    2  228    2  66.2  61.3 1019.6 -9.9 -9.999 -99.9 -99.99 -9.99
2019/10/20 16:06 PDT    5.92   5.63    2  211    3  65.5  61.3 1019.5 -9.9 -9.999 -99.9 -99.99 -9.99
2019/10/20 16:12 PDT    5.95   5.68    8  261   11  65.8  61.3 1019.6 -9.9 -9.999 -99.9 -99.99 -9.99
2019/10/20 16:18 PDT    5.98   5.73    6  268    8  65.5  61.3 1019.6 -9.9 -9.999 -99.9 -99.99 -9.99
2019/10/20 16:24 PDT    6.00   5.72    8  277   11  65.5  61.3 1019.6 -9.9 -9.999 -99.9 -99.99 -9.99
2019/10/20 16:30 PDT    6.01   5.70    6  274    9  65.1  61.3 1019.7 -9.9 -9.999 -99.9 -99.99 -9.99
2019/10/20 16:36 PDT    6.02   5.72    6  277   11  65.1  61.3 1019.7 -9.9 -9.999 -99.9 -99.99 -9.99
2019/10/20 16:42 PDT    6.03   5.75    7  279   10  65.1  61.3 1019.7 -9.9 -9.999 -99.9 -99.99 -9.99
2019/10/20 16:48 PDT    6.03   5.73    6  279    8  65.1  61.3 1019.6 -9.9 -9.999 -99.9 -99.99 -9.99
2019/10/20 16:54 PDT    6.03   5.72    6  282    8  64.9  61.3 1019.6 -9.9 -9.999 -99.9 -99.99 -9.99
2019/10/20 17:00 PDT    6.02   5.70    6  281    8  64.9  61.5 1019.5 -9.9 -9.999 -99.9 -99.99 -9.99
2019/10/20 17:06 PDT    6.01   5.68    8  284   10  64.6  61.5 1019.5 -9.9 -9.999 -99.9 -99.99 -9.99
2019/10/20 17:12 PDT    5.99   5.65    7  284    9  64.8  61.5 1019.5 -9.9 -9.999 -99.9 -99.99 -9.99
2019/10/20 17:18 PDT    5.97   5.61    7  284    9  64.8  61.7 1019.4 -9.9 -9.999 -99.9 -99.99 -9.99
2019/10/20 17:24 PDT    5.94   5.59    6  284    8  64.9  61.7 1019.4 -9.9 -9.999 -99.9 -99.99 -9.99
2019/10/20 17:30 PDT    5.91   5.55    6  282    8  64.9  61.7 1019.3 -9.9 -9.999 -99.9 -99.99 -9.99
2019/10/20 17:36 PDT    5.88   5.49    5  284    7  64.8  61.7 1019.4 -9.9 -9.999 -99.9 -99.99 -9.99
2019/10/20 17:42 PDT    5.83   5.43    6  282    8  64.4  61.7 1019.3 -9.9 -9.999 -99.9 -99.99 -9.99
2019/10/20 17:48 PDT    5.79   5.40    6  284    8  64.6  61.9 1019.4 -9.9 -9.999 -99.9 -99.99 -9.99
2019/10/20 17:54 PDT    5.74   5.33    5  282    8  64.9  61.9 1019.3 -9.9 -9.999 -99.9 -99.99 -9.99
2019/10/20 18:00 PDT    5.68   5.26    6  281    8  64.9  61.9 1019.3 -9.9 -9.999 -99.9 -99.99 -9.99
2019/10/20 18:06 PDT    5.62   5.15    5  286    7  64.8  61.9 1019.2 -9.9 -9.999 -99.9 -99.99 -9.99
2019/10/20 18:12 PDT    5.55   5.06    5  265    7  64.2  62.1 1019.1 -9.9 -9.999 -99.9 -99.99 -9.99
2019/10/20 18:18 PDT    5.48   4.99    5  272    7  64.0  62.1 1019.0 -9.9 -9.999 -99.9 -99.99 -9.99
2019/10/20 18:24 PDT    5.40   4.97    7  268    9  63.9  62.1 1018.9 -9.9 -9.999 -99.9 -99.99 -9.99
2019/10/20 18:30 PDT    5.32   4.90    6  268    7  63.9  62.1 1018.9 -9.9 -9.999 -99.9 -99.99 -9.99
2019/10/20 18:36 PDT    5.23   4.78    6  265    9  63.7  62.1 1018.9 -9.9 -9.999 -99.9 -99.99 -9.99
2019/10/20 18:42 PDT    5.14   4.65    6  265    7  64.0  62.1 1019.0 -9.9 -9.999 -99.9 -99.99 -9.99
2019/10/20 18:48 PDT    5.05   4.56    4  266    6  64.2  62.2 1019.1 -9.9 -9.999 -99.9 -99.99 -9.99
2019/10/20 18:54 PDT    4.95   4.45    3  279    6  64.0  62.2 1019.2 -9.9 -9.999 -99.9 -99.99 -9.99
2019/10/20 19:00 PDT    4.84   4.36    5  262    7  63.5  62.2 1019.2 -9.9 -9.999 -99.9 -99.99 -9.99
2019/10/20 19:06 PDT    4.73   4.25    4  266    7  63.3  62.2 1019.2 -9.9 -9.999 -99.9 -99.99 -9.99
2019/10/20 19:12 PDT    4.62   4.12    4  287    5  63.3  62.2 1019.3 -9.9 -9.999 -99.9 -99.99 -9.99
2019/10/20 19:18 PDT    4.50   3.99    4  291    5  63.1  62.2 1019.4 -9.9 -9.999 -99.9 -99.99 -9.99
2019/10/20 19:24 PDT    4.38   3.88    6  258    8  62.6  62.2 1019.4 -9.9 -9.999 -99.9 -99.99 -9.99
2019/10/20 19:30 PDT    4.26   3.78    4  269    6  62.1  62.2 1019.5 -9.9 -9.999 -99.9 -99.99 -9.99
2019/10/20 19:36 PDT    4.13   3.65    4  274    5  62.1  62.2 1019.5 -9.9 -9.999 -99.9 -99.99 -9.99
2019/10/20 19:42 PDT    4.01   3.48    4  265    6  62.2  62.4 1019.5 -9.9 -9.999 -99.9 -99.99 -9.99
2019/10/20 19:48 PDT    3.87   3.36    5  281    6  62.1  62.4 1019.5 -9.9 -9.999 -99.9 -99.99 -9.99
2019/10/20 19:54 PDT    3.74   3.27    5  282    6  62.1  62.4 1019.6 -9.9 -9.999 -99.9 -99.99 -9.99
2019/10/20 20:00 PDT    3.61   3.17    4  288    6  62.1  62.4 1019.7 -9.9 -9.999 -99.9 -99.99 -9.99
2019/10/20 20:06 PDT    3.47   3.01    5  285    6  62.1  62.4 1019.8 -9.9 -9.999 -99.9 -99.99 -9.99
2019/10/20 20:12 PDT    3.33   2.86    4  289    5  61.9  62.2 1019.8 -9.9 -9.999 -99.9 -99.99 -9.99
2019/10/20 20:18 PDT    3.20   2.75    4  277    6  61.9  62.4 1019.9 -9.9 -9.999 -99.9 -99.99 -9.99
2019/10/20 20:24 PDT    3.06   2.62    5  267    6  61.9  62.4 1019.8 -9.9 -9.999 -99.9 -99.99 -9.99
2019/10/20 20:30 PDT    2.92   2.50    3  274    6  61.7  62.4 1019.9 -9.9 -9.999 -99.9 -99.99 -9.99
2019/10/20 20:36 PDT    2.79   2.39    3  282    5  61.7  62.4 1020.0 -9.9 -9.999 -99.9 -99.99 -9.99
2019/10/20 20:42 PDT    2.65   2.27    3  284    5  61.7  62.4 1020.0 -9.9 -9.999 -99.9 -99.99 -9.99
2019/10/20 20:48 PDT    2.52   2.14    3  290    4  61.7  62.4 1020.1 -9.9 -9.999 -99.9 -99.99 -9.99
2019/10/20 20:54 PDT    2.39   2.02    3  285    4  61.7  62.4 1020.1 -9.9 -9.999 -99.9 -99.99 -9.99
2019/10/20 21:00 PDT    2.26   1.93    3  281    4  61.7  62.4 1020.0 -9.9 -9.999 -99.9 -99.99 -9.99
2019/10/20 21:06 PDT    2.13   1.83    3  252    4  62.1  62.4 1019.9 -9.9 -9.999 -99.9 -99.99 -9.99
2019/10/20 21:12 PDT    2.01   1.71    3  262    4  61.7  62.4 1019.9 -9.9 -9.999 -99.9 -99.99 -9.99
2019/10/20 21:18 PDT    1.88   1.59    3  256    4  61.7  62.4 1019.8 -9.9 -9.999 -99.9 -99.99 -9.99
2019/10/20 21:24 PDT    1.77   1.50    3  292    4  61.3  62.4 1019.9 -9.9 -9.999 -99.9 -99.99 -9.99
2019/10/20 21:30 PDT    1.65   1.41    3  274    4  61.0  62.4 1020.0 -9.9 -9.999 -99.9 -99.99 -9.99
2019/10/20 21:36 PDT    1.54   1.31    3  282    4  60.8  62.4 1020.1 -9.9 -9.999 -99.9 -99.99 -9.99
2019/10/20 21:42 PDT    1.44   1.20    2  269    5  61.0  62.4 1020.1 -9.9 -9.999 -99.9 -99.99 -9.99
2019/10/20 21:48 PDT    1.33   1.12    5  267    6  60.6  62.4 1020.2 -9.9 -9.999 -99.9 -99.99 -9.99
2019/10/20 21:54 PDT    1.24   1.04    4  272    6  60.6  62.4 1020.2 -9.9 -9.999 -99.9 -99.99 -9.99
2019/10/20 22:00 PDT    1.14   0.93    4  270    7  60.4  62.4 1020.2 -9.9 -9.999 -99.9 -99.99 -9.99
2019/10/20 22:06 PDT    1.06   0.83    4  270    7  60.4  62.4 1020.2 -9.9 -9.999 -99.9 -99.99 -9.99
2019/10/20 22:12 PDT    0.97   0.77    4  264    7  60.4  62.4 1020.3 -9.9 -9.999 -99.9 -99.99 -9.99
2019/10/20 22:18 PDT    0.89   0.70    4  268    6  60.3  62.4 1020.4 -9.9 -9.999 -99.9 -99.99 -9.99
2019/10/20 22:24 PDT    0.82   0.62    3  272    4  60.3  62.4 1020.5 -9.9 -9.999 -99.9 -99.99 -9.99
2019/10/20 22:30 PDT    0.75   0.53    3  272    5  60.1  62.4 1020.6 -9.9 -9.999 -99.9 -99.99 -9.99
2019/10/20 22:36 PDT    0.68   0.44    3  272    4  60.3  62.4 1020.7 -9.9 -9.999 -99.9 -99.99 -9.99
2019/10/20 22:42 PDT    0.62   0.36    3  272    5  59.9  62.4 1020.7 -9.9 -9.999 -99.9 -99.99 -9.99
2019/10/20 22:48 PDT    0.57   0.29    2  290    3  59.9  62.4 1020.8 -9.9 -9.999 -99.9 -99.99 -9.99
2019/10/20 22:54 PDT    0.52   0.24    2  290    3  60.1  62.4 1020.8 -9.9 -9.999 -99.9 -99.99 -9.99
2019/10/20 23:00 PDT    0.47   0.20    1  299    3  60.1  62.4 1020.8 -9.9 -9.999 -99.9 -99.99 -9.99
2019/10/20 23:06 PDT    0.43   0.16    0  337    1  60.1  62.4 1020.8 -9.9 -9.999 -99.9 -99.99 -9.99
2019/10/20 23:12 PDT    0.39   0.13    1  315    2  60.1  62.4 1020.9 -9.9 -9.999 -99.9 -99.99 -9.99
2019/10/20 23:18 PDT    0.36   0.08    1  334    1  60.3  62.4 1020.9 -9.9 -9.999 -99.9 -99.99 -9.99
2019/10/20 23:24 PDT    0.33   0.02    0   10    1  60.3  62.2 1020.9 -9.9 -9.999 -99.9 -99.99 -9.99
2019/10/20 23:30 PDT    0.31  -0.03    1  354    2  60.3  62.2 1021.0 -9.9 -9.999 -99.9 -99.99 -9.99
2019/10/20 23:36 PDT    0.29  -0.06    0   65    3  60.3  62.2 1021.0 -9.9 -9.999 -99.9 -99.99 -9.99
2019/10/20 23:42 PDT    0.28  -0.09    0   86    1  59.7  62.2 1021.0 -9.9 -9.999 -99.9 -99.99 -9.99
2019/10/20 23:48 PDT    0.26  -0.09    1   98    1  59.5  62.2 1020.8 -9.9 -9.999 -99.9 -99.99 -9.99
2019/10/20 23:54 PDT    0.26  -0.08    1   92    1  59.4  62.2 1020.8 -9.9 -9.999 -99.9 -99.99 -9.99
2019/10/21 00:00 PDT    0.26  -0.08    2  103    2  59.2  62.2 1020.8 -9.9 -9.999 -99.9 -99.99 -9.99
2019/10/21 00:06 PDT    0.26  -0.11    2   98    2  59.2  62.2 1020.7 -9.9 -9.999 -99.9 -99.99 -9.99
2019/10/21 00:12 PDT    0.27  -0.11    2   98    3  59.2  62.2 1020.6 -9.9 -9.999 -99.9 -99.99 -9.99
2019/10/21 00:18 PDT    0.28  -0.08    3   95    3  59.4  62.2 1020.7 -9.9 -9.999 -99.9 -99.99 -9.99
2019/10/21 00:24 PDT    0.29  -0.07    4   96    4  58.8  62.2 1020.7 -9.9 -9.999 -99.9 -99.99 -9.99
2019/10/21 00:30 PDT    0.31  -0.09    4  100    5  58.8  62.2 1020.7 -9.9 -9.999 -99.9 -99.99 -9.99
2019/10/21 00:36 PDT    0.33  -0.07    3   99    4  58.8  62.2 1020.7 -9.9 -9.999 -99.9 -99.99 -9.99
2019/10/21 00:42 PDT    0.36  -0.03    4  101    5  58.8  62.2 1020.6 -9.9 -9.999 -99.9 -99.99 -9.99
2019/10/21 00:48 PDT    0.39  -0.01    4   96    5  58.6  62.2 1020.6 -9.9 -9.999 -99.9 -99.99 -9.99
2019/10/21 00:54 PDT    0.43  -0.00    4   98    5  58.6  62.2 1020.7 -9.9 -9.999 -99.9 -99.99 -9.99
2019/10/21 01:00 PDT    0.47   0.05    3   93    5  58.5  62.2 1020.7 -9.9 -9.999 -99.9 -99.99 -9.99
2019/10/21 01:06 PDT    0.51   0.12    3  102    4  58.6  62.2 1020.7 -9.9 -9.999 -99.9 -99.99 -9.99
2019/10/21 01:12 PDT    0.56   0.18    2   95    4  58.3  62.2 1020.7 -9.9 -9.999 -99.9 -99.99 -9.99
2019/10/21 01:18 PDT    0.61   0.21    3   99    4  58.3  62.2 1020.7 -9.9 -9.999 -99.9 -99.99 -9.99
2019/10/21 01:24 PDT    0.67   0.27    3   95    4  58.3  62.2 1020.7 -9.9 -9.999 -99.9 -99.99 -9.99
2019/10/21 01:30 PDT    0.73   0.30    3   98    4  58.3  62.2 1020.7 -9.9 -9.999 -99.9 -99.99 -9.99
2019/10/21 01:36 PDT    0.79   0.34    3  100    4  58.1  62.2 1020.6 -9.9 -9.999 -99.9 -99.99 -9.99
2019/10/21 01:42 PDT    0.86   0.41    3  103    4  58.1  62.2 1020.5 -9.9 -9.999 -99.9 -99.99 -9.99
2019/10/21 01:48 PDT    0.92   0.51    4   93    4  57.9  62.2 1020.5 -9.9 -9.999 -99.9 -99.99 -9.99
2019/10/21 01:54 PDT    1.00   0.60    3   93    5  57.9  62.2 1020.6 -9.9 -9.999 -99.9 -99.99 -9.99
2019/10/21 02:00 PDT    1.07   0.68    4   93    5  57.9  62.2 1020.7 -9.9 -9.999 -99.9 -99.99 -9.99
2019/10/21 02:06 PDT    1.15   0.74    3   92    5  57.9  62.2 1020.7 -9.9 -9.999 -99.9 -99.99 -9.99
2019/10/21 02:12 PDT    1.23   0.82    3   90    4  58.1  62.2 1020.7 -9.9 -9.999 -99.9 -99.99 -9.99
2019/10/21 02:18 PDT    1.32   0.89    3   82    4  58.1  62.2 1020.8 -9.9 -9.999 -99.9 -99.99 -9.99
2019/10/21 02:24 PDT    1.40   0.99    3   86    4  57.9  62.2 1020.8 -9.9 -9.999 -99.9 -99.99 -9.99
2019/10/21 02:30 PDT    1.49   1.08    3   88    4  57.9  62.2 1020.8 -9.9 -9.999 -99.9 -99.99 -9.99
2019/10/21 02:36 PDT    1.58   1.18    2   91    3  57.9  62.2 1020.8 -9.9 -9.999 -99.9 -99.99 -9.99
2019/10/21 02:42 PDT    1.67   1.29    3   88    4  58.1  62.1 1020.7 -9.9 -9.999 -99.9 -99.99 -9.99
2019/10/21 02:48 PDT    1.76   1.39    3   92    4  58.3  62.1 1020.7 -9.9 -9.999 -99.9 -99.99 -9.99
2019/10/21 02:54 PDT    1.86   1.47    2   85    3  58.3  62.1 1020.8 -9.9 -9.999 -99.9 -99.99 -9.99
2019/10/21 03:00 PDT    1.95   1.58    1   85    2  58.3  62.1 1020.7 -9.9 -9.999 -99.9 -99.99 -9.99
2019/10/21 03:06 PDT    2.05   1.71    2   76    2  58.5  62.1 1020.7 -9.9 -9.999 -99.9 -99.99 -9.99
2019/10/21 03:12 PDT    2.15   1.82    1   85    2  58.8  62.1 1020.7 -9.9 -9.999 -99.9 -99.99 -9.99
2019/10/21 03:18 PDT    2.25   1.93    1   75    2  58.8  62.1 1020.7 -9.9 -9.999 -99.9 -99.99 -9.99
2019/10/21 03:24 PDT    2.34   2.00    1   50    2  58.5  62.1 1020.7 -9.9 -9.999 -99.9 -99.99 -9.99
2019/10/21 03:30 PDT    2.44   2.11    2   30    2  58.1  62.1 1020.7 -9.9 -9.999 -99.9 -99.99 -9.99
2019/10/21 03:36 PDT    2.54   2.24    2   40    2  58.3  61.9 1020.8 -9.9 -9.999 -99.9 -99.99 -9.99
2019/10/21 03:42 PDT    2.64   2.35    2   39    2  58.1  61.9 1020.8 -9.9 -9.999 -99.9 -99.99 -9.99
2019/10/21 03:48 PDT    2.74   2.43    1   19    2  57.6  61.9 1020.7 -9.9 -9.999 -99.9 -99.99 -9.99
2019/10/21 03:54 PDT    2.83   2.53    0   35    2  57.7  61.9 1020.7 -9.9 -9.999 -99.9 -99.99 -9.99
2019/10/21 04:00 PDT    2.93   2.64    0  121    1  57.9  61.9 1020.7 -9.9 -9.999 -99.9 -99.99 -9.99
2019/10/21 04:06 PDT    3.03   2.74    0   76    1  57.7  61.7 1020.7 -9.9 -9.999 -99.9 -99.99 -9.99
2019/10/21 04:12 PDT    3.12   2.84    0   92    1  57.7  61.7 1020.5 -9.9 -9.999 -99.9 -99.99 -9.99
2019/10/21 04:18 PDT    3.22   2.97    1   30    2  57.7  61.5 1020.5 -9.9 -9.999 -99.9 -99.99 -9.99
2019/10/21 04:24 PDT    3.31   3.06    0   39    1  58.1  61.5 1020.5 -9.9 -9.999 -99.9 -99.99 -9.99
2019/10/21 04:30 PDT    3.40   3.14    0   89    0  57.6  61.5 1020.5 -9.9 -9.999 -99.9 -99.99 -9.99
2019/10/21 04:36 PDT    3.49   3.22    0   17    1  57.7  61.5 1020.5 -9.9 -9.999 -99.9 -99.99 -9.99
2019/10/21 04:42 PDT    3.58   3.34    0  326    1  58.3  61.3 1020.6 -9.9 -9.999 -99.9 -99.99 -9.99
2019/10/21 04:48 PDT    3.67   3.46    0  327    1  58.3  61.3 1020.6 -9.9 -9.999 -99.9 -99.99 -9.99
2019/10/21 04:54 PDT    3.76   3.54    0   61    1  58.1  61.2 1020.5 -9.9 -9.999 -99.9 -99.99 -9.99
2019/10/21 05:00 PDT    3.84   3.62    1   85    2  58.3  61.2 1020.6 -9.9 -9.999 -99.9 -99.99 -9.99
2019/10/21 05:06 PDT    3.93   3.72    2   73    3  58.3  61.2 1020.6 -9.9 -9.999 -99.9 -99.99 -9.99
2019/10/21 05:12 PDT    4.01   3.79    2   86    2  58.1  61.2 1020.6 -9.9 -9.999 -99.9 -99.99 -9.99
2019/10/21 05:18 PDT    4.09   3.86    2   86    3  58.1  61.2 1020.6 -9.9 -9.999 -99.9 -99.99 -9.99
2019/10/21 05:24 PDT    4.17   3.95    1   98    2  57.7  61.2 1020.6 -9.9 -9.999 -99.9 -99.99 -9.99
2019/10/21 05:30 PDT    4.24   4.04    1   84    2  57.6  61.0 1020.6 -9.9 -9.999 -99.9 -99.99 -9.99
2019/10/21 05:36 PDT    4.32   4.10    1   90    2  57.6  61.0 1020.6 -9.9 -9.999 -99.9 -99.99 -9.99
2019/10/21 05:42 PDT    4.39   4.18    1   78    2  57.4  61.0 1020.6 -9.9 -9.999 -99.9 -99.99 -9.99
2019/10/21 05:48 PDT    4.46   4.26    1   85    2  57.6  61.0 1020.7 -9.9 -9.999 -99.9 -99.99 -9.99
2019/10/21 05:54 PDT    4.53   4.35    3   87    4  57.6  61.0 1020.8 -9.9 -9.999 -99.9 -99.99 -9.99
2019/10/21 06:00 PDT    4.59   4.39    2   87    4  57.4  61.0 1020.8 -9.9 -9.999 -99.9 -99.99 -9.99
2019/10/21 06:06 PDT    4.65   4.46    3   91    4  57.4  61.0 1020.9 -9.9 -9.999 -99.9 -99.99 -9.99
2019/10/21 06:12 PDT    4.71   4.52    2   91    3  57.0  61.0 1021.0 -9.9 -9.999 -99.9 -99.99 -9.99
2019/10/21 06:18 PDT    4.77   4.58    2   88    3  56.7  61.0 1021.0 -9.9 -9.999 -99.9 -99.99 -9.99
2019/10/21 06:24 PDT    4.82   4.64    3   95    4  56.8  60.8 1021.0 -9.9 -9.999 -99.9 -99.99 -9.99
2019/10/21 06:30 PDT    4.87   4.71    3   89    4  57.2  60.8 1021.1 -9.9 -9.999 -99.9 -99.99 -9.99
2019/10/21 06:36 PDT    4.91   4.76    2   76    4  57.4  60.8 1021.2 -9.9 -9.999 -99.9 -99.99 -9.99
2019/10/21 06:42 PDT    4.95   4.79    2   84    4  57.4  60.8 1021.2 -9.9 -9.999 -99.9 -99.99 -9.99
2019/10/21 06:48 PDT    4.99   4.80    3   91    4  57.2  60.8 1021.2 -9.9 -9.999 -99.9 -99.99 -9.99
2019/10/21 06:54 PDT    5.02   4.85    2   84    4  56.8  60.8 1021.3 -9.9 -9.999 -99.9 -99.99 -9.99
2019/10/21 07:00 PDT    5.05   4.92    2   86    3  56.8  60.8 1021.3 -9.9 -9.999 -99.9 -99.99 -9.99
2019/10/21 07:06 PDT    5.07   4.96    1   79    3  56.8  60.8 1021.4 -9.9 -9.999 -99.9 -99.99 -9.99
2019/10/21 07:12 PDT    5.09   4.99    4   73    5  56.7  60.8 1021.5 -9.9 -9.999 -99.9 -99.99 -9.99
2019/10/21 07:18 PDT    5.10   5.00    2   84    4  57.2  60.8 1021.5 -9.9 -9.999 -99.9 -99.99 -9.99
2019/10/21 07:24 PDT    5.11   4.99    3   81    4  57.4  60.8 1021.6 -9.9 -9.999 -99.9 -99.99 -9.99
2019/10/21 07:30 PDT    5.12   4.98    2   54    3  56.7  60.8 1021.6 -9.9 -9.999 -99.9 -99.99 -9.99
2019/10/21 07:36 PDT    5.12   4.98    1   77    3  56.7  60.8 1021.5 -9.9 -9.999 -99.9 -99.99 -9.99
2019/10/21 07:42 PDT    5.11   5.00    1   97    1  57.2  60.8 1021.6 -9.9 -9.999 -99.9 -99.99 -9.99
2019/10/21 07:48 PDT    5.11   4.99    2   89    2  57.4  61.0 1021.6 -9.9 -9.999 -99.9 -99.99 -9.99
2019/10/21 07:54 PDT    5.09   5.00    3   89    3  56.8  61.0 1021.6 -9.9 -9.999 -99.9 -99.99 -9.99
2019/10/21 08:00 PDT    5.08   4.99    2   83    3  57.2  61.0 1021.6 -9.9 -9.999 -99.9 -99.99 -9.99
2019/10/21 08:06 PDT    5.05   4.96    2   91    3  57.0  61.0 1021.7 -9.9 -9.999 -99.9 -99.99 -9.99
2019/10/21 08:12 PDT    5.03   4.92    2   79    3  57.6  61.2 1021.8 -9.9 -9.999 -99.9 -99.99 -9.99
2019/10/21 08:18 PDT    5.00   4.91    2   88    4  57.9  61.2 1021.9 -9.9 -9.999 -99.9 -99.99 -9.99
2019/10/21 08:24 PDT    4.97   4.89    2   95    3  58.3  61.2 1022.0 -9.9 -9.999 -99.9 -99.99 -9.99
2019/10/21 08:30 PDT    4.93   4.87    1   99    2  59.4  61.2 1022.1 -9.9 -9.999 -99.9 -99.99 -9.99
2019/10/21 08:36 PDT    4.89   4.83    0   73    1  60.4  61.2 1022.1 -9.9 -9.999 -99.9 -99.99 -9.99
2019/10/21 08:42 PDT    4.85   4.80    1  137    1  60.6  61.2 1022.1 -9.9 -9.999 -99.9 -99.99 -9.99
2019/10/21 08:48 PDT    4.80   4.75    1  158    1  60.8  61.2 1022.1 -9.9 -9.999 -99.9 -99.99 -9.99
2019/10/21 08:54 PDT    4.75   4.68    1  185    1  60.6  61.2 1022.1 -9.9 -9.999 -99.9 -99.99 -9.99
2019/10/21 09:00 PDT    4.70   4.64    1  141    1  61.5  61.2 1022.2 -9.9 -9.999 -99.9 -99.99 -9.99
2019/10/21 09:06 PDT    4.65   4.60    2  109    2  60.1  61.2 1022.2 -9.9 -9.999 -99.9 -99.99 -9.99
2019/10/21 09:12 PDT    4.60   4.55    1  106    2  60.3  61.2 1022.3 -9.9 -9.999 -99.9 -99.99 -9.99
2019/10/21 09:18 PDT    4.54   4.50    3  129    4  60.1  61.2 1022.4 -9.9 -9.999 -99.9 -99.99 -9.99
2019/10/21 09:24 PDT    4.49   4.47    2  137    4  60.3  61.2 1022.4 -9.9 -9.999 -99.9 -99.99 -9.99
2019/10/21 09:30 PDT    4.43   4.41    2  156    3  60.4  61.2 1022.5 -9.9 -9.999 -99.9 -99.99 -9.99
2019/10/21 09:36 PDT    4.37   4.35    2  157    3  60.6  61.2 1022.6 -9.9 -9.999 -99.9 -99.99 -9.99
2019/10/21 09:42 PDT    4.32   4.27    1  157    3  61.0  61.2 1022.7 -9.9 -9.999 -99.9 -99.99 -9.99
2019/10/21 09:48 PDT    4.26   4.20    1  151    2  61.5  61.2 1022.6 -9.9 -9.999 -99.9 -99.99 -9.99
2019/10/21 09:54 PDT    4.20   4.17    1  196    2  61.5  61.2 1022.6 -9.9 -9.999 -99.9 -99.99 -9.99
2019/10/21 10:00 PDT    4.15   4.13    1  187    2  61.7  61.2 1022.6 -9.9 -9.999 -99.9 -99.99 -9.99
2019/10/21 10:06 PDT    4.09   4.07    2  230    2  60.6  61.2 1022.6 -9.9 -9.999 -99.9 -99.99 -9.99
2019/10/21 10:12 PDT    4.03   3.99    2  256    3  60.4  61.2 1022.7 -9.9 -9.999 -99.9 -99.99 -9.99
2019/10/21 10:18 PDT    3.98   3.93    2  245    3  60.4  61.2 1022.7 -9.9 -9.999 -99.9 -99.99 -9.99
2019/10/21 10:24 PDT    3.93   3.87    3  252    3  60.4  61.2 1022.7 -9.9 -9.999 -99.9 -99.99 -9.99
2019/10/21 10:30 PDT    3.88   3.80    2  241    3  60.6  61.2 1022.7 -9.9 -9.999 -99.9 -99.99 -9.99
2019/10/21 10:36 PDT    3.83   3.74    2  236    3  60.6  61.2 1022.7 -9.9 -9.999 -99.9 -99.99 -9.99
2019/10/21 10:42 PDT    3.78   3.71    3  251    3  60.6  61.2 1022.6 -9.9 -9.999 -99.9 -99.99 -9.99
2019/10/21 10:48 PDT    3.73   3.65    3  250    3  60.6  61.2 1022.6 -9.9 -9.999 -99.9 -99.99 -9.99
2019/10/21 10:54 PDT    3.69   3.59    3  244    3  60.8  61.2 1022.6 -9.9 -9.999 -99.9 -99.99 -9.99
2019/10/21 11:00 PDT    3.65   3.57    3  245    3  61.0  61.2 1022.6 -9.9 -9.999 -99.9 -99.99 -9.99
2019/10/21 11:06 PDT    3.61   3.57    3  231    3  61.2  61.2 1022.5 -9.9 -9.999 -99.9 -99.99 -9.99
2019/10/21 11:12 PDT    3.57   3.51    2  214    3  61.0  61.2 1022.5 -9.9 -9.999 -99.9 -99.99 -9.99
2019/10/21 11:18 PDT    3.53   3.44    3  220    3  61.3  61.2 1022.5 -9.9 -9.999 -99.9 -99.99 -9.99
2019/10/21 11:24 PDT    3.50   3.39    3  215    3  61.7  61.2 1022.5 -9.9 -9.999 -99.9 -99.99 -9.99
2019/10/21 11:30 PDT    3.47   3.37    3  158    4  62.2  61.2 1022.5 -9.9 -9.999 -99.9 -99.99 -9.99
2019/10/21 11:36 PDT    3.44   3.34    4  188    4  62.2  61.2 1022.4 -9.9 -9.999 -99.9 -99.99 -9.99
2019/10/21 11:42 PDT    3.42   3.32    3  193    4  62.2  61.2 1022.4 -9.9 -9.999 -99.9 -99.99 -9.99
2019/10/21 11:48 PDT    3.39   3.32    4  150    5  62.6  61.2 1022.4 -9.9 -9.999 -99.9 -99.99 -9.99
2019/10/21 11:54 PDT    3.37   3.28    4  180    5  63.0  61.2 1022.3 -9.9 -9.999 -99.9 -99.99 -9.99
2019/10/21 12:00 PDT    3.35   3.24    4  155    5  63.3  61.2 1022.3 -9.9 -9.999 -99.9 -99.99 -9.99
2019/10/21 12:06 PDT    3.34   3.22    3  186    5  63.9  61.2 1022.3 -9.9 -9.999 -99.9 -99.99 -9.99
2019/10/21 12:12 PDT    3.33   3.22    3  150    4  64.0  61.2 1022.2 -9.9 -9.999 -99.9 -99.99 -9.99
2019/10/21 12:18 PDT    3.32   3.24    3  183    4  64.2  61.3 1022.1 -9.9 -9.999 -99.9 -99.99 -9.99
2019/10/21 12:24 PDT    3.31   3.25    2  156    3  64.6  61.3 1022.1 -9.9 -9.999 -99.9 -99.99 -9.99
2019/10/21 12:30 PDT    3.31   3.23    2  203    3  64.2  61.3 1021.9 -9.9 -9.999 -99.9 -99.99 -9.99
2019/10/21 12:36 PDT    3.31   3.19    2  241    2  64.2  61.3 1021.7 -9.9 -9.999 -99.9 -99.99 -9.99
2019/10/21 12:42 PDT    3.32   3.17    1  203    2  64.0  61.3 1021.7 -9.9 -9.999 -99.9 -99.99 -9.99
2019/10/21 12:48 PDT    3.32   3.19    2  129    2  65.3  61.3 1021.6 -9.9 -9.999 -99.9 -99.99 -9.99
2019/10/21 12:54 PDT    3.33   3.21    0  101    2  66.2  61.3 1021.6 -9.9 -9.999 -99.9 -99.99 -9.99
2019/10/21 13:00 PDT    3.35   3.24    1  111    1  66.6  61.3 1021.5 -9.9 -9.999 -99.9 -99.99 -9.99
2019/10/21 13:06 PDT    3.37   3.25    2  234    2  66.0  61.3 1021.3 -9.9 -9.999 -99.9 -99.99 -9.99
2019/10/21 13:12 PDT    3.39   3.26    2  242    3  65.8  61.3 1021.2 -9.9 -9.999 -99.9 -99.99 -9.99
2019/10/21 13:18 PDT    3.41   3.24    2  234    3  66.6  61.3 1021.2 -9.9 -9.999 -99.9 -99.99 -9.99
2019/10/21 13:24 PDT    3.44   3.25    3  249    4  66.7  61.3 1021.1 -9.9 -9.999 -99.9 -99.99 -9.99
2019/10/21 13:30 PDT    3.48   3.29    3  250    4  67.1  61.5 1021.1 -9.9 -9.999 -99.9 -99.99 -9.99
2019/10/21 13:36 PDT    3.51   3.32    4  251    5  66.6  61.5 1021.1 -9.9 -9.999 -99.9 -99.99 -9.99
2019/10/21 13:42 PDT    3.55   3.33    4  247    5  66.2  61.5 1021.0 -9.9 -9.999 -99.9 -99.99 -9.99
2019/10/21 13:48 PDT    3.60   3.35    3  250    4  66.4  61.5 1020.9 -9.9 -9.999 -99.9 -99.99 -9.99
2019/10/21 13:54 PDT    3.64   3.40    3  244    4  66.4  61.3 1020.8 -9.9 -9.999 -99.9 -99.99 -9.99
2019/10/21 14:00 PDT    3.69   3.46    5  273    6  67.3  61.3 1020.7 -9.9 -9.999 -99.9 -99.99 -9.99
2019/10/21 14:06 PDT    3.75   3.52    4  274    6  68.5  61.5 1020.6 -9.9 -9.999 -99.9 -99.99 -9.99
2019/10/21 14:12 PDT    3.80   3.60    3  215    6  67.5  61.5 1020.6 -9.9 -9.999 -99.9 -99.99 -9.99
2019/10/21 14:18 PDT    3.86   3.67    3  165    4  68.0  61.5 1020.5 -9.9 -9.999 -99.9 -99.99 -9.99
2019/10/21 14:24 PDT    3.92   3.73    2  160    4  68.9  61.5 1020.4 -9.9 -9.999 -99.9 -99.99 -9.99
2019/10/21 14:30 PDT    3.99   3.78    1  219    3  70.2  61.5 1020.2 -9.9 -9.999 -99.9 -99.99 -9.99
2019/10/21 14:36 PDT    4.06   3.84    2  234    4  69.6  61.5 1020.1 -9.9 -9.999 -99.9 -99.99 -9.99
2019/10/21 14:42 PDT    4.12   3.91    2  198    3  69.3  61.5 1020.1 -9.9 -9.999 -99.9 -99.99 -9.99
2019/10/21 14:48 PDT    4.20   3.97    3  170    4  69.8  61.5 1020.1 -9.9 -9.999 -99.9 -99.99 -9.99
2019/10/21 14:54 PDT    4.27   4.03    1  221    4  70.9  61.5 1020.0 -9.9 -9.999 -99.9 -99.99 -9.99
2019/10/21 15:00 PDT    4.34   4.09    2  224    2  71.2  61.3 1020.0 -9.9 -9.999 -99.9 -99.99 -9.99
2019/10/21 15:06 PDT    4.42   4.16    2  227    2  71.2  61.3 1020.0 -9.9 -9.999 -99.9 -99.99 -9.99
2019/10/21 15:12 PDT    4.49   4.21    2  238    3  70.7  61.3 1020.0 -9.9 -9.999 -99.9 -99.99 -9.99
2019/10/21 15:18 PDT    4.57   4.27    2  240    3  70.5  61.3 1020.0 -9.9 -9.999 -99.9 -99.99 -9.99
2019/10/21 15:24 PDT    4.64   4.34    2  236    3  70.3  61.3 1020.0 -9.9 -9.999 -99.9 -99.99 -9.99
2019/10/21 15:30 PDT    4.72   4.43    2  218    3  70.7  61.3 1020.0 -9.9 -9.999 -99.9 -99.99 -9.99
2019/10/21 15:36 PDT    4.79   4.48    2  190    3  70.7  61.3 1020.0 -9.9 -9.999 -99.9 -99.99 -9.99
2019/10/21 15:42 PDT    4.87   4.55    2  196    3  69.6  61.3 1020.0 -9.9 -9.999 -99.9 -99.99 -9.99
2019/10/21 15:48 PDT    4.94   4.62    1  242    2  70.0  61.3 1019.9 -9.9 -9.999 -99.9 -99.99 -9.99
2019/10/21 15:54 PDT    5.01   4.69    2  221    2  70.0  61.3 1019.9 -9.9 -9.999 -99.9 -99.99 -9.99
2019/10/21 16:00 PDT    5.09   4.75    1  219    2  70.3  61.3 1019.9 -9.9 -9.999 -99.9 -99.99 -9.99
2019/10/21 16:06 PDT    5.15   4.80    1  222    2  70.7  61.3 1019.9 -9.9 -9.999 -99.9 -99.99 -9.99
2019/10/21 16:12 PDT    5.22   4.87    1  235    3  73.2  61.5 1019.9 -9.9 -9.999 -99.9 -99.99 -9.99
2019/10/21 16:18 PDT    5.29   4.94    1  229    3  74.7  61.5 1019.9 -9.9 -9.999 -99.9 -99.99 -9.99
2019/10/21 16:24 PDT    5.35   5.01    1  271    1  76.5  61.5 1019.8 -9.9 -9.999 -99.9 -99.99 -9.99
2019/10/21 16:30 PDT    5.41   5.07    2  307    3  77.0  61.5 1019.8 -9.9 -9.999 -99.9 -99.99 -9.99
2019/10/21 16:36 PDT    5.46   5.10    2  269    3  76.6  61.5 1019.8 -9.9 -9.999 -99.9 -99.99 -9.99
2019/10/21 16:42 PDT    5.52   5.13    3  279    4  76.5  61.5 1019.8 -9.9 -9.999 -99.9 -99.99 -9.99
2019/10/21 16:48 PDT    5.57   5.18    2  276    3  76.8  61.5 1019.8 -9.9 -9.999 -99.9 -99.99 -9.99
2019/10/21 16:54 PDT    5.62   5.24    1  228    3  74.8  61.5 1019.7 -9.9 -9.999 -99.9 -99.99 -9.99
2019/10/21 17:00 PDT    5.66   5.29    2  285    4  75.9  61.3 1019.7 -9.9 -9.999 -99.9 -99.99 -9.99
2019/10/21 17:06 PDT    5.70   5.33    3  304    4  76.8  61.3 1019.6 -9.9 -9.999 -99.9 -99.99 -9.99
2019/10/21 17:12 PDT    5.74   5.36    3  292    5  76.6  61.3 1019.6 -9.9 -9.999 -99.9 -99.99 -9.99
2019/10/21 17:18 PDT    5.77   5.39    4  299    6  77.2  61.5 1019.6 -9.9 -9.999 -99.9 -99.99 -9.99
2019/10/21 17:24 PDT    5.80   5.46    3  301    5  77.0  61.5 1019.6 -9.9 -9.999 -99.9 -99.99 -9.99
2019/10/21 17:30 PDT    5.83   5.50    3  310    5  77.0  61.5 1019.6 -9.9 -9.999 -99.9 -99.99 -9.99
2019/10/21 17:36 PDT    5.85   5.50    4  294    5  75.9  61.5 1019.6 -9.9 -9.999 -99.9 -99.99 -9.99
2019/10/21 17:42 PDT    5.87   5.52    5  292    6  75.6  61.7 1019.6 -9.9 -9.999 -99.9 -99.99 -9.99
2019/10/21 17:48 PDT    5.88   5.53    4  298    6  75.0  61.7 1019.6 -9.9 -9.999 -99.9 -99.99 -9.99
2019/10/21 17:54 PDT    5.89   5.53    4  295    6  74.7  61.9 1019.6 -9.9 -9.999 -99.9 -99.99 -9.99
2019/10/21 18:00 PDT    5.89   5.55    4  291    6  73.8  61.9 1019.6 -9.9 -9.999 -99.9 -99.99 -9.99
2019/10/21 18:06 PDT    5.89   5.57    4  293    4  73.9  61.9 1019.6 -9.9 -9.999 -99.9 -99.99 -9.99
2019/10/21 18:12 PDT    5.89   5.56    3  297    4  73.8  61.9 1019.6 -9.9 -9.999 -99.9 -99.99 -9.99
2019/10/21 18:18 PDT    5.88   5.55    2  355    3  73.8  61.9 1019.6 -9.9 -9.999 -99.9 -99.99 -9.99
2019/10/21 18:24 PDT    5.86   5.53    2    7    4  73.0  61.9 1019.7 -9.9 -9.999 -99.9 -99.99 -9.99
2019/10/21 18:30 PDT    5.84   5.52    1   35    3  72.0  61.9 1019.7 -9.9 -9.999 -99.9 -99.99 -9.99
2019/10/21 18:36 PDT    5.82   5.51    2   17    4  71.6  61.9 1019.7 -9.9 -9.999 -99.9 -99.99 -9.99
2019/10/21 18:42 PDT    5.79   5.50    4    9    7  70.9  61.9 1019.8 -9.9 -9.999 -99.9 -99.99 -9.99
2019/10/21 18:48 PDT    5.75   5.48    4    8    6  70.0  61.9 1019.9 -9.9 -9.999 -99.9 -99.99 -9.99
2019/10/21 18:54 PDT    5.71   5.42    4   17    6  69.4  61.9 1019.9 -9.9 -9.999 -99.9 -99.99 -9.99
2019/10/21 19:00 PDT    5.67   5.35    4   13    6  68.9  61.9 1020.0 -9.9 -9.999 -99.9 -99.99 -9.99
2019/10/21 19:06 PDT    5.62   5.29    3   13    5  68.7  61.9 1020.1 -9.9 -9.999 -99.9 -99.99 -9.99
2019/10/21 19:12 PDT    5.56   5.24    4  357    6  68.7  61.9 1020.2 -9.9 -9.999 -99.9 -99.99 -9.99
2019/10/21 19:18 PDT    5.50   5.18    4    1    6  68.4  61.9 1020.2 -9.9 -9.999 -99.9 -99.99 -9.99
2019/10/21 19:24 PDT    5.44   5.13    4  358    6  68.4  62.1 1020.3 -9.9 -9.999 -99.9 -99.99 -9.99
2019/10/21 19:30 PDT    5.36   5.04    4  359    6  68.5  62.1 1020.3 -9.9 -9.999 -99.9 -99.99 -9.99
2019/10/21 19:36 PDT    5.29   4.95    4  358    5  68.5  62.1 1020.3 -9.9 -9.999 -99.9 -99.99 -9.99
2019/10/21 19:42 PDT    5.21   4.87    4  339    5  68.4  62.1 1020.4 -9.9 -9.999 -99.9 -99.99 -9.99
2019/10/21 19:48 PDT    5.12   4.80    4  338    5  69.3  62.1 1020.4 -9.9 -9.999 -99.9 -99.99 -9.99
2019/10/21 19:54 PDT    5.03   4.67    4  349    5  69.1  62.1 1020.4 -9.9 -9.999 -99.9 -99.99 -9.99
2019/10/21 20:00 PDT    4.93   4.57    4  347    5  68.9  62.1 1020.5 -9.9 -9.999 -99.9 -99.99 -9.99
2019/10/21 20:06 PDT    4.83   4.46    4  334    4  68.9  62.2 1020.5 -9.9 -9.999 -99.9 -99.99 -9.99
2019/10/21 20:12 PDT    4.72   4.34    4  342    5  69.1  62.2 1020.6 -9.9 -9.999 -99.9 -99.99 -9.99
2019/10/21 20:18 PDT    4.61   4.23    3  343    5  68.5  62.2 1020.7 -9.9 -9.999 -99.9 -99.99 -9.99
2019/10/21 20:24 PDT    4.50   4.13    4  339    5  68.0  62.2 1020.7 -9.9 -9.999 -99.9 -99.99 -9.99
2019/10/21 20:30 PDT    4.38   4.02    3  349    5  67.5  62.4 1020.7 -9.9 -9.999 -99.9 -99.99 -9.99
2019/10/21 20:36 PDT    4.26   3.87    3  343    4  67.3  62.4 1020.8 -9.9 -9.999 -99.9 -99.99 -9.99
2019/10/21 20:42 PDT    4.14   3.74    2    2    4  67.1  62.4 1020.8 -9.9 -9.999 -99.9 -99.99 -9.99
2019/10/21 20:48 PDT    4.01   3.63    1   39    2  66.7  62.4 1020.8 -9.9 -9.999 -99.9 -99.99 -9.99
2019/10/21 20:54 PDT    3.89   3.50    1   42    1  66.6  62.4 1020.8 -9.9 -9.999 -99.9 -99.99 -9.99
2019/10/21 21:00 PDT    3.75   3.37    0   89    1  66.0  62.4 1020.8 -9.9 -9.999 -99.9 -99.99 -9.99
2019/10/21 21:06 PDT    3.62   3.23    1   36    2  66.7  62.4 1020.9 -9.9 -9.999 -99.9 -99.99 -9.99
2019/10/21 21:12 PDT    3.49   3.10    2   85    3  66.0  62.4 1021.0 -9.9 -9.999 -99.9 -99.99 -9.99
2019/10/21 21:18 PDT    3.35   2.96    1  137    3  65.8  62.4 1021.0 -9.9 -9.999 -99.9 -99.99 -9.99
2019/10/21 21:24 PDT    3.22   2.82    0   91    2  65.7  62.4 1021.0 -9.9 -9.999 -99.9 -99.99 -9.99
2019/10/21 21:30 PDT    3.08   2.70    2   98    3  65.5  62.4 1021.1 -9.9 -9.999 -99.9 -99.99 -9.99
2019/10/21 21:36 PDT    2.95   2.57    0   99    2  65.1  62.4 1021.0 -9.9 -9.999 -99.9 -99.99 -9.99
2019/10/21 21:42 PDT    2.81   2.44    0   98    2  66.0  62.4 1021.1 -9.9 -9.999 -99.9 -99.99 -9.99
2019/10/21 21:48 PDT    2.68   2.33    1   20    1  65.8  62.4 1021.1 -9.9 -9.999 -99.9 -99.99 -9.99
2019/10/21 21:54 PDT    2.55   2.21    1   21    2  66.0  62.4 1021.1 -9.9 -9.999 -99.9 -99.99 -9.99
2019/10/21 22:00 PDT    2.42   2.09    1  351    2  66.2  62.4 1021.2 -9.9 -9.999 -99.9 -99.99 -9.99
2019/10/21 22:06 PDT    2.29   1.95    0  262    1  66.2  62.4 1021.2 -9.9 -9.999 -99.9 -99.99 -9.99
2019/10/21 22:12 PDT    2.16   1.84    1   27    2  66.0  62.4 1021.3 -9.9 -9.999 -99.9 -99.99 -9.99
2019/10/21 22:18 PDT    2.04   1.72    1   16    2  66.2  62.4 1021.4 -9.9 -9.999 -99.9 -99.99 -9.99
2019/10/21 22:24 PDT    1.92   1.61    2    6    2  66.6  62.4 1021.4 -9.9 -9.999 -99.9 -99.99 -9.99
2019/10/21 22:30 PDT    1.80   1.50    1   16    2  65.7  62.4 1021.4 -9.9 -9.999 -99.9 -99.99 -9.99
2019/10/21 22:36 PDT    1.69   1.40    3   83    3  65.8  62.4 1021.5 -9.9 -9.999 -99.9 -99.99 -9.99
2019/10/21 22:42 PDT    1.58   1.29    3   85    3  65.1  62.6 1021.5 -9.9 -9.999 -99.9 -99.99 -9.99
2019/10/21 22:48 PDT    1.47   1.18    2   98    3  65.3  62.6 1021.5 -9.9 -9.999 -99.9 -99.99 -9.99
2019/10/21 22:54 PDT    1.37   1.08    2   99    3  64.9  62.6 1021.6 -9.9 -9.999 -99.9 -99.99 -9.99
2019/10/21 23:00 PDT    1.27   0.98    1   79    2  65.1  62.6 1021.7 -9.9 -9.999 -99.9 -99.99 -9.99
2019/10/21 23:06 PDT    1.17   0.89    0   92    1  64.9  62.6 1021.8 -9.9 -9.999 -99.9 -99.99 -9.99
2019/10/21 23:12 PDT    1.08   0.80    0   62    1  65.3  62.6 1021.8 -9.9 -9.999 -99.9 -99.99 -9.99
2019/10/21 23:18 PDT    0.99   0.70    1   84    2  65.3  62.6 1021.8 -9.9 -9.999 -99.9 -99.99 -9.99
2019/10/21 23:24 PDT    0.91   0.62    2   21    2  65.8  62.6 1021.8 -9.9 -9.999 -99.9 -99.99 -9.99
2019/10/21 23:30 PDT    0.83   0.55    2   47    3  66.0  62.6 1021.9 -9.9 -9.999 -99.9 -99.99 -9.99
2019/10/21 23:36 PDT    0.76   0.48    1   52    2  66.2  62.6 1021.8 -9.9 -9.999 -99.9 -99.99 -9.99
2019/10/21 23:42 PDT    0.69   0.39    0  117    2  65.5  62.8 1021.9 -9.9 -9.999 -99.9 -99.99 -9.99
2019/10/21 23:48 PDT    0.62   0.31    2   20    3  64.8  62.8 1021.9 -9.9 -9.999 -99.9 -99.99 -9.99
2019/10/21 23:54 PDT    0.56   0.26    2   19    3  64.6  62.8 1022.0 -9.9 -9.999 -99.9 -99.99 -9.99
2019/10/22 00:00 PDT    0.51   0.20    1   51    3  64.9  62.8 1022.0 -9.9 -9.999 -99.9 -99.99 -9.99
2019/10/22 00:06 PDT    0.45   0.12    1   76    2  64.6  62.8 1022.0 -9.9 -9.999 -99.9 -99.99 -9.99
2019/10/22 00:12 PDT    0.41   0.04    2   30    2  65.1  62.8 1022.1 -9.9 -9.999 -99.9 -99.99 -9.99
2019/10/22 00:18 PDT    0.36  -0.02    2    8    2  64.8  62.8 1022.1 -9.9 -9.999 -99.9 -99.99 -9.99
2019/10/22 00:24 PDT    0.32  -0.08    2  349    2  64.6  62.8 1022.1 -9.9 -9.999 -99.9 -99.99 -9.99
2019/10/22 00:30 PDT    0.29  -0.15    2   13    3  63.9  62.8 1022.1 -9.9 -9.999 -99.9 -99.99 -9.99
2019/10/22 00:36 PDT    0.26  -0.19    2   13    3  63.5  62.8 1022.1 -9.9 -9.999 -99.9 -99.99 -9.99
2019/10/22 00:42 PDT    0.24  -0.21    2   23    3  63.9  62.8 1022.0 -9.9 -9.999 -99.9 -99.99 -9.99
2019/10/22 00:48 PDT    0.21  -0.21    2   25    3  63.9  62.8 1022.0 -9.9 -9.999 -99.9 -99.99 -9.99
2019/10/22 00:54 PDT    0.20  -0.24    2  341    2  64.2  62.8 1022.0 -9.9 -9.999 -99.9 -99.99 -9.99
2019/10/22 01:00 PDT    0.19  -0.24    2   15    2  64.4  62.8 1022.0 -9.9 -9.999 -99.9 -99.99 -9.99
2019/10/22 01:06 PDT    0.18  -0.24    2    6    2  63.9  62.8 1022.0 -9.9 -9.999 -99.9 -99.99 -9.99
2019/10/22 01:12 PDT    0.18  -0.26    2  338    3  63.7  62.8 1022.0 -9.9 -9.999 -99.9 -99.99 -9.99
2019/10/22 01:18 PDT    0.18  -0.26    3  337    3  63.5  62.8 1022.0 -9.9 -9.999 -99.9 -99.99 -9.99
2019/10/22 01:24 PDT    0.19  -0.25    2   14    3  63.1  62.8 1022.1 -9.9 -9.999 -99.9 -99.99 -9.99
2019/10/22 01:30 PDT    0.20  -0.24    1   36    2  62.8  62.8 1022.1 -9.9 -9.999 -99.9 -99.99 -9.99
2019/10/22 01:36 PDT    0.22  -0.22    0   65    1  62.4  62.8 1022.2 -9.9 -9.999 -99.9 -99.99 -9.99
2019/10/22 01:42 PDT    0.24  -0.18    2    0    2  62.6  62.8 1022.2 -9.9 -9.999 -99.9 -99.99 -9.99
2019/10/22 01:48 PDT    0.26  -0.15    2  345    2  62.6  62.8 1022.2 -9.9 -9.999 -99.9 -99.99 -9.99
2019/10/22 01:54 PDT    0.29  -0.13    2  341    3  62.6  62.8 1022.2 -9.9 -9.999 -99.9 -99.99 -9.99
2019/10/22 02:00 PDT    0.33  -0.08    3  349    3  62.6  62.8 1022.1 -9.9 -9.999 -99.9 -99.99 -9.99
2019/10/22 02:06 PDT    0.37  -0.03    2   20    4  62.6  62.8 1022.1 -9.9 -9.999 -99.9 -99.99 -9.99
2019/10/22 02:12 PDT    0.41  -0.01    2   20    4  62.4  62.8 1022.1 -9.9 -9.999 -99.9 -99.99 -9.99
2019/10/22 02:18 PDT    0.46   0.03    1  360    2  62.2  62.8 1022.1 -9.9 -9.999 -99.9 -99.99 -9.99
2019/10/22 02:24 PDT    0.52   0.07    3  358    3  62.4  62.8 1022.1 -9.9 -9.999 -99.9 -99.99 -9.99
2019/10/22 02:30 PDT    0.57   0.13    2   12    3  62.1  62.8 1022.1 -9.9 -9.999 -99.9 -99.99 -9.99
2019/10/22 02:36 PDT    0.64   0.21    2   11    3  61.7  62.6 1022.1 -9.9 -9.999 -99.9 -99.99 -9.99
2019/10/22 02:42 PDT    0.70   0.30    2   10    4  61.5  62.6 1022.1 -9.9 -9.999 -99.9 -99.99 -9.99
2019/10/22 02:48 PDT    0.77   0.37    2   19    3  61.2  62.6 1022.1 -9.9 -9.999 -99.9 -99.99 -9.99
2019/10/22 02:54 PDT    0.85   0.44    2  354    2  61.2  62.6 1022.1 -9.9 -9.999 -99.9 -99.99 -9.99
2019/10/22 03:00 PDT    0.92   0.54    0  347    2  61.5  62.6 1022.1 -9.9 -9.999 -99.9 -99.99 -9.99
2019/10/22 03:06 PDT    1.00   0.64    0  312    1  61.7  62.6 1022.1 -9.9 -9.999 -99.9 -99.99 -9.99
2019/10/22 03:12 PDT    1.09   0.71    0   98    1  61.7  62.6 1022.0 -9.9 -9.999 -99.9 -99.99 -9.99
2019/10/22 03:18 PDT    1.17   0.79    0   54    2  61.7  62.6 1022.1 -9.9 -9.999 -99.9 -99.99 -9.99
2019/10/22 03:24 PDT    1.26   0.90    1  349    2  61.5  62.6 1022.1 -9.9 -9.999 -99.9 -99.99 -9.99
2019/10/22 03:30 PDT    1.36   0.99    1   27    2  61.3  62.6 1022.0 -9.9 -9.999 -99.9 -99.99 -9.99
2019/10/22 03:36 PDT    1.45   1.10    0   63    1  61.2  62.4 1022.0 -9.9 -9.999 -99.9 -99.99 -9.99
2019/10/22 03:42 PDT    1.55   1.20    0   96    2  61.3  62.4 1022.0 -9.9 -9.999 -99.9 -99.99 -9.99
2019/10/22 03:48 PDT    1.65   1.33    1   95    2  60.3  62.4 1022.0 -9.9 -9.999 -99.9 -99.99 -9.99
2019/10/22 03:54 PDT    1.75   1.44    1  112    2  60.1  62.4 1021.9 -9.9 -9.999 -99.9 -99.99 -9.99
2019/10/22 04:00 PDT    1.85   1.56    3   92    3  59.9  62.4 1021.9 -9.9 -9.999 -99.9 -99.99 -9.99
2019/10/22 04:06 PDT    1.95   1.67    2   95    3  60.1  62.2 1021.9 -9.9 -9.999 -99.9 -99.99 -9.99
2019/10/22 04:12 PDT    2.06   1.78    1   91    2  60.8  62.2 1021.9 -9.9 -9.999 -99.9 -99.99 -9.99
2019/10/22 04:18 PDT    2.16   1.87    1  107    2  60.4  62.2 1021.8 -9.9 -9.999 -99.9 -99.99 -9.99
2019/10/22 04:24 PDT    2.27   1.98    1   59    2  60.6  62.2 1021.8 -9.9 -9.999 -99.9 -99.99 -9.99
2019/10/22 04:30 PDT    2.38   2.09    0   50    0  61.0  62.2 1021.8 -9.9 -9.999 -99.9 -99.99 -9.99
2019/10/22 04:36 PDT    2.49 -99.99 -999 -999 -999 -99.9 -99.9 -999.9 -9.9 -9.999 -99.9 -99.99 -9.99
2019/10/22 04:42 PDT    2.59 -99.99 -999 -999 -999 -99.9 -99.9 -999.9 -9.9 -9.999 -99.9 -99.99 -9.99
2019/10/22 04:48 PDT    2.70 -99.99 -999 -999 -999 -99.9 -99.9 -999.9 -9.9 -9.999 -99.9 -99.99 -9.99